PWSweather.com
Personal Weather Stations
Station Observations
WOODBURYWX
Lighthouse Rd, Woodbury, Woodbury, CT 06798

Lighthouse Rd, WoodburyWoodbury, CT 06798

Lat: 41.553333, Lon: -73.224167

Elevation: 437

Station Type: Ambient Weather WS-1090

Latest ConditionsUpdated 8:41:00 AM EST Saturday, Dec 3, 2016
Currently Today's Max Today's Min Today's Average
Temperature 40.1°F4.5°C 40.8°F4.9°C 37.6°F3.1°C 38.8°F3.8°C
Dew Point 28.5°F-1.9°C 30.8°F-0.7°C 27.6°F-2.4°C 29.4°F-1.4°C
Winds 2.4 mph SE3.9 kmh SE 3.2 mph S5.1 kmh S - 1.0 mph 1.6 kmh
Wind Gusts 7.0 mph11.3 kmh 9.6 mph15.4 kmh - -
Humidity 63% 72% 62% 69%
Pressure 30.17 in1021.7 mb 30.19 in1022.4 mb 30.06 in1017.9 mb -
Hour Temp Dew Point Humidity Winds Wind Gusts Pressure Precip Precip Rate Daily Precip Total
08:41 AM 40.1°F4.5°C 28.5°F-1.9°C 63% 2.4 mph SE3.9 kmh SE 7.0 mph11.3 kmh 30.17 in1021.7 mb 0.00 in0.0 mm 0.00 in0.0 mm 0.00 in0.0 mm
08:40 AM 39.7°F4.3°C 28.2°F-2.1°C 63% 2.4 mph SE3.9 kmh SE 7.0 mph11.3 kmh 30.17 in1021.7 mb 0.00 in0.0 mm 0.00 in0.0 mm 0.00 in0.0 mm
08:39 AM 39.9°F4.4°C 28.3°F-2.1°C 63% 2.2 mph SSE3.5 kmh SSE 7.0 mph11.3 kmh 30.17 in1021.7 mb 0.00 in0.0 mm 0.00 in0.0 mm 0.00 in0.0 mm
08:38 AM 39.7°F4.3°C 28.2°F-2.1°C 63% 2.1 mph S3.4 kmh S 7.0 mph11.3 kmh 30.17 in1021.7 mb 0.00 in0.0 mm 0.00 in0.0 mm 0.00 in0.0 mm
08:37 AM 39.6°F4.2°C 27.6°F-2.4°C 62% 2.0 mph SSE3.2 kmh SSE 7.0 mph11.3 kmh 30.17 in1021.7 mb 0.00 in0.0 mm 0.00 in0.0 mm 0.00 in0.0 mm
08:36 AM 39.7°F4.3°C 27.8°F-2.3°C 62% 1.9 mph SSE3.1 kmh SSE 7.0 mph11.3 kmh 30.17 in1021.7 mb 0.00 in0.0 mm 0.00 in0.0 mm 0.00 in0.0 mm
08:35 AM 39.9°F4.4°C 27.9°F-2.3°C 62% 1.5 mph S2.4 kmh S 4.4 mph7.1 kmh 30.17 in1021.7 mb 0.00 in0.0 mm 0.00 in0.0 mm 0.00 in0.0 mm
08:34 AM 39.9°F4.4°C 27.9°F-2.3°C 62% 1.6 mph SE2.6 kmh SE 4.4 mph7.1 kmh 30.17 in1021.7 mb 0.00 in0.0 mm 0.00 in0.0 mm 0.00 in0.0 mm
08:33 AM 39.9°F4.4°C 27.9°F-2.3°C 62% 1.8 mph NE2.9 kmh NE 4.4 mph7.1 kmh 30.17 in1021.7 mb 0.00 in0.0 mm 0.00 in0.0 mm 0.00 in0.0 mm
08:32 AM 39.7°F4.3°C 28.2°F-2.1°C 63% 2.0 mph NNE3.2 kmh NNE 4.4 mph7.1 kmh 30.17 in1021.7 mb 0.00 in0.0 mm 0.00 in0.0 mm 0.00 in0.0 mm
08:31 AM 39.9°F4.4°C 28.3°F-2.1°C 63% 2.1 mph N3.4 kmh N 4.4 mph7.1 kmh 30.17 in1021.7 mb 0.00 in0.0 mm 0.00 in0.0 mm 0.00 in0.0 mm
08:30 AM 40.1°F4.5°C 28.5°F-1.9°C 63% 1.9 mph N3.1 kmh N 4.4 mph7.1 kmh 30.17 in1021.7 mb 0.00 in0.0 mm 0.00 in0.0 mm 0.00 in0.0 mm
08:29 AM 40.1°F4.5°C 28.5°F-1.9°C 63% 1.9 mph N3.1 kmh N 4.4 mph7.1 kmh 30.17 in1021.7 mb 0.00 in0.0 mm 0.00 in0.0 mm 0.00 in0.0 mm
08:28 AM 40.3°F4.6°C 28.7°F-1.8°C 63% 2.0 mph N3.2 kmh N 4.4 mph7.1 kmh 30.18 in1022.0 mb 0.00 in0.0 mm 0.00 in0.0 mm 0.00 in0.0 mm
08:27 AM 40.1°F4.5°C 28.5°F-1.9°C 63% 2.4 mph N3.9 kmh N 5.2 mph8.4 kmh 30.17 in1021.7 mb 0.00 in0.0 mm 0.00 in0.0 mm 0.00 in0.0 mm
08:26 AM 40.3°F4.6°C 28.3°F-2.1°C 62% 2.7 mph N4.3 kmh N 5.2 mph8.4 kmh 30.18 in1022.0 mb 0.00 in0.0 mm 0.00 in0.0 mm 0.00 in0.0 mm
08:25 AM 40.3°F4.6°C 28.3°F-2.1°C 62% 2.8 mph N4.5 kmh N 5.2 mph8.4 kmh 30.18 in1022.0 mb 0.00 in0.0 mm 0.00 in0.0 mm 0.00 in0.0 mm
08:24 AM 40.5°F4.7°C 29.2°F-1.6°C 64% 2.8 mph N4.5 kmh N 5.2 mph8.4 kmh 30.18 in1022.0 mb 0.00 in0.0 mm 0.00 in0.0 mm 0.00 in0.0 mm
08:23 AM 40.5°F4.7°C 29.2°F-1.6°C 64% 2.8 mph N4.5 kmh N 5.2 mph8.4 kmh 30.18 in1022.0 mb 0.00 in0.0 mm 0.00 in0.0 mm 0.00 in0.0 mm
08:22 AM 40.5°F4.7°C 29.2°F-1.6°C 64% 2.5 mph NNE4.0 kmh NNE 5.2 mph8.4 kmh 30.18 in1022.0 mb 0.00 in0.0 mm 0.00 in0.0 mm 0.00 in0.0 mm
08:21 AM 40.3°F4.6°C 28.7°F-1.8°C 63% 2.4 mph NNE3.9 kmh NNE 5.2 mph8.4 kmh 30.18 in1022.0 mb 0.00 in0.0 mm 0.00 in0.0 mm 0.00 in0.0 mm
08:20 AM 40.1°F4.5°C 28.1°F-2.2°C 62% 2.6 mph NNE4.2 kmh NNE 5.2 mph8.4 kmh 30.18 in1022.0 mb 0.00 in0.0 mm 0.00 in0.0 mm 0.00 in0.0 mm
08:19 AM 39.9°F4.4°C 27.9°F-2.3°C 62% 2.7 mph NNE4.3 kmh NNE 5.2 mph8.4 kmh 30.18 in1022.0 mb 0.00 in0.0 mm 0.00 in0.0 mm 0.00 in0.0 mm
08:18 AM 40.1°F4.5°C 28.1°F-2.2°C 62% 2.7 mph NNE4.3 kmh NNE 5.2 mph8.4 kmh 30.19 in1022.4 mb 0.00 in0.0 mm 0.00 in0.0 mm 0.00 in0.0 mm
08:17 AM 40.1°F4.5°C 28.5°F-1.9°C 63% 2.4 mph NNE3.9 kmh NNE 5.2 mph8.4 kmh 30.18 in1022.0 mb 0.00 in0.0 mm 0.00 in0.0 mm 0.00 in0.0 mm
08:16 AM 40.3°F4.6°C 28.7°F-1.8°C 63% 2.0 mph NE3.2 kmh NE 5.2 mph8.4 kmh 30.19 in1022.4 mb 0.00 in0.0 mm 0.00 in0.0 mm 0.00 in0.0 mm
08:15 AM 40.3°F4.6°C 28.7°F-1.8°C 63% 1.6 mph NNE2.6 kmh NNE 5.2 mph8.4 kmh 30.18 in1022.0 mb 0.00 in0.0 mm 0.00 in0.0 mm 0.00 in0.0 mm
08:14 AM 40.5°F4.7°C 28.8°F-1.8°C 63% 1.3 mph N2.1 kmh N 5.2 mph8.4 kmh 30.19 in1022.4 mb 0.00 in0.0 mm 0.00 in0.0 mm 0.00 in0.0 mm
08:13 AM 40.6°F4.8°C 29.0°F-1.7°C 63% 1.1 mph N1.8 kmh N 3.5 mph5.6 kmh 30.18 in1022.0 mb 0.00 in0.0 mm 0.00 in0.0 mm 0.00 in0.0 mm
08:12 AM 40.6°F4.8°C 29.0°F-1.7°C 63% 1.3 mph N2.1 kmh N 3.5 mph5.6 kmh 30.19 in1022.4 mb 0.00 in0.0 mm 0.00 in0.0 mm 0.00 in0.0 mm
08:11 AM 40.5°F4.7°C 28.8°F-1.8°C 63% 1.5 mph NW2.4 kmh NW 3.5 mph5.6 kmh 30.19 in1022.4 mb 0.00 in0.0 mm 0.00 in0.0 mm 0.00 in0.0 mm
08:10 AM 40.8°F4.9°C 29.2°F-1.6°C 63% 1.9 mph NNW3.1 kmh NNW 5.2 mph8.4 kmh 30.19 in1022.4 mb 0.00 in0.0 mm 0.00 in0.0 mm 0.00 in0.0 mm
08:09 AM 40.8°F4.9°C 29.6°F-1.3°C 64% 1.6 mph NW2.6 kmh NW 5.2 mph8.4 kmh 30.19 in1022.4 mb 0.00 in0.0 mm 0.00 in0.0 mm 0.00 in0.0 mm
08:08 AM 40.5°F4.7°C 28.8°F-1.8°C 63% 1.5 mph NW2.4 kmh NW 5.2 mph8.4 kmh 30.18 in1022.0 mb 0.00 in0.0 mm 0.00 in0.0 mm 0.00 in0.0 mm
08:07 AM 40.5°F4.7°C 29.2°F-1.6°C 64% 1.8 mph N2.9 kmh N 5.2 mph8.4 kmh 30.19 in1022.4 mb 0.00 in0.0 mm 0.00 in0.0 mm 0.00 in0.0 mm
08:06 AM 40.6°F4.8°C 29.4°F-1.4°C 64% 2.0 mph NNE3.2 kmh NNE 5.2 mph8.4 kmh 30.19 in1022.4 mb 0.00 in0.0 mm 0.00 in0.0 mm 0.00 in0.0 mm
08:05 AM 40.6°F4.8°C 29.4°F-1.4°C 64% 2.1 mph NNE3.4 kmh NNE 5.2 mph8.4 kmh 30.19 in1022.4 mb 0.00 in0.0 mm 0.00 in0.0 mm 0.00 in0.0 mm
08:04 AM 40.6°F4.8°C 29.0°F-1.7°C 63% 2.5 mph NNE4.0 kmh NNE 5.2 mph8.4 kmh 30.19 in1022.4 mb 0.00 in0.0 mm 0.00 in0.0 mm 0.00 in0.0 mm
08:03 AM 40.8°F4.9°C 29.2°F-1.6°C 63% 2.5 mph NE4.0 kmh NE 5.2 mph8.4 kmh 30.19 in1022.4 mb 0.00 in0.0 mm 0.00 in0.0 mm 0.00 in0.0 mm
08:02 AM 40.6°F4.8°C 29.0°F-1.7°C 63% 2.3 mph NE3.7 kmh NE 5.2 mph8.4 kmh 30.19 in1022.4 mb 0.00 in0.0 mm 0.00 in0.0 mm 0.00 in0.0 mm
08:01 AM 40.6°F4.8°C 29.0°F-1.7°C 63% 2.2 mph NE3.5 kmh NE 5.2 mph8.4 kmh 30.19 in1022.4 mb 0.00 in0.0 mm 0.00 in0.0 mm 0.00 in0.0 mm
08:00 AM 40.5°F4.7°C 29.2°F-1.6°C 64% 1.8 mph ENE2.9 kmh ENE 4.4 mph7.1 kmh 30.19 in1022.4 mb 0.00 in0.0 mm 0.00 in0.0 mm 0.00 in0.0 mm
07:59 AM 40.6°F4.8°C 29.0°F-1.7°C 63% 2.1 mph NE3.4 kmh NE 4.4 mph7.1 kmh 30.19 in1022.4 mb 0.00 in0.0 mm 0.00 in0.0 mm 0.00 in0.0 mm
07:58 AM 40.5°F4.7°C 29.2°F-1.6°C 64% 2.2 mph NE3.5 kmh NE 4.4 mph7.1 kmh 30.19 in1022.4 mb 0.00 in0.0 mm 0.00 in0.0 mm 0.00 in0.0 mm
07:57 AM 40.3°F4.6°C 29.1°F-1.6°C 64% 1.9 mph NE3.1 kmh NE 4.4 mph7.1 kmh 30.18 in1022.0 mb 0.00 in0.0 mm 0.00 in0.0 mm 0.00 in0.0 mm
07:56 AM 40.1°F4.5°C 29.3°F-1.5°C 65% 1.6 mph NE2.6 kmh NE 4.4 mph7.1 kmh 30.19 in1022.4 mb 0.00 in0.0 mm 0.00 in0.0 mm 0.00 in0.0 mm
07:55 AM 40.1°F4.5°C 29.6°F-1.3°C 66% 2.1 mph E3.4 kmh E 5.2 mph8.4 kmh 30.18 in1022.0 mb 0.00 in0.0 mm 0.00 in0.0 mm 0.00 in0.0 mm
07:54 AM 40.3°F4.6°C 29.8°F-1.2°C 66% 2.1 mph ESE3.4 kmh ESE 5.2 mph8.4 kmh 30.18 in1022.0 mb 0.00 in0.0 mm 0.00 in0.0 mm 0.00 in0.0 mm
07:53 AM 40.1°F4.5°C 29.6°F-1.3°C 66% 2.1 mph S3.4 kmh S 5.2 mph8.4 kmh 30.18 in1022.0 mb 0.00 in0.0 mm 0.00 in0.0 mm 0.00 in0.0 mm
07:52 AM 39.9°F4.4°C 29.5°F-1.4°C 66% 2.1 mph S3.4 kmh S 5.2 mph8.4 kmh 30.18 in1022.0 mb 0.00 in0.0 mm 0.00 in0.0 mm 0.00 in0.0 mm
07:51 AM 39.7°F4.3°C 29.3°F-1.5°C 66% 1.9 mph SSW3.1 kmh SSW 5.2 mph8.4 kmh 30.18 in1022.0 mb 0.00 in0.0 mm 0.00 in0.0 mm 0.00 in0.0 mm
07:50 AM 39.6°F4.2°C 29.5°F-1.4°C 67% 1.8 mph SSW2.9 kmh SSW 5.2 mph8.4 kmh 30.18 in1022.0 mb 0.00 in0.0 mm 0.00 in0.0 mm 0.00 in0.0 mm
07:49 AM 39.6°F4.2°C 29.1°F-1.6°C 66% 1.5 mph SSW2.4 kmh SSW 5.2 mph8.4 kmh 30.18 in1022.0 mb 0.00 in0.0 mm 0.00 in0.0 mm 0.00 in0.0 mm
07:48 AM 39.6°F4.2°C 28.4°F-2.0°C 64% 1.4 mph SSW2.3 kmh SSW 5.2 mph8.4 kmh 30.17 in1021.7 mb 0.00 in0.0 mm 0.00 in0.0 mm 0.00 in0.0 mm
07:47 AM 39.4°F4.1°C 28.6°F-1.9°C 65% 1.4 mph SSW2.3 kmh SSW 5.2 mph8.4 kmh 30.18 in1022.0 mb 0.00 in0.0 mm 0.00 in0.0 mm 0.00 in0.0 mm
07:46 AM 39.2°F4.0°C 28.8°F-1.8°C 66% 1.3 mph SSW2.1 kmh SSW 5.2 mph8.4 kmh 30.18 in1022.0 mb 0.00 in0.0 mm 0.00 in0.0 mm 0.00 in0.0 mm
07:45 AM 39.2°F4.0°C 28.8°F-1.8°C 66% 0.8 mph SW1.3 kmh SW 5.2 mph8.4 kmh 30.17 in1021.7 mb 0.00 in0.0 mm 0.00 in0.0 mm 0.00 in0.0 mm
07:44 AM 39.0°F3.9°C 29.3°F-1.5°C 68% 0.3 mph SW0.5 kmh SW 4.4 mph7.1 kmh 30.17 in1021.7 mb 0.00 in0.0 mm 0.00 in0.0 mm 0.00 in0.0 mm
07:43 AM 39.0°F3.9°C 29.0°F-1.7°C 67% Calm Calm -- 30.17 in1021.7 mb 0.00 in0.0 mm 0.00 in0.0 mm 0.00 in0.0 mm
07:42 AM 39.0°F3.9°C 29.0°F-1.7°C 67% Calm Calm -- 30.18 in1022.0 mb 0.00 in0.0 mm 0.00 in0.0 mm 0.00 in0.0 mm
07:41 AM 39.0°F3.9°C 29.3°F-1.5°C 68% Calm Calm -- 30.17 in1021.7 mb 0.00 in0.0 mm 0.00 in0.0 mm 0.00 in0.0 mm
07:40 AM 39.0°F3.9°C 28.6°F-1.9°C 66% Calm Calm -- 30.17 in1021.7 mb 0.00 in0.0 mm 0.00 in0.0 mm 0.00 in0.0 mm
07:39 AM 39.0°F3.9°C 29.0°F-1.7°C 67% Calm Calm -- 30.17 in1021.7 mb 0.00 in0.0 mm 0.00 in0.0 mm 0.00 in0.0 mm
07:38 AM 39.0°F3.9°C 29.0°F-1.7°C 67% Calm Calm -- 30.17 in1021.7 mb 0.00 in0.0 mm 0.00 in0.0 mm 0.00 in0.0 mm
07:37 AM 38.8°F3.8°C 28.8°F-1.8°C 67% Calm Calm -- 30.17 in1021.7 mb 0.00 in0.0 mm 0.00 in0.0 mm 0.00 in0.0 mm
07:36 AM 38.8°F3.8°C 28.8°F-1.8°C 67% Calm Calm -- 30.17 in1021.7 mb 0.00 in0.0 mm 0.00 in0.0 mm 0.00 in0.0 mm
07:35 AM 39.0°F3.9°C 29.0°F-1.7°C 67% Calm Calm -- 30.17 in1021.7 mb 0.00 in0.0 mm 0.00 in0.0 mm 0.00 in0.0 mm
07:34 AM 38.8°F3.8°C 28.8°F-1.8°C 67% Calm Calm -- 30.17 in1021.7 mb 0.00 in0.0 mm 0.00 in0.0 mm 0.00 in0.0 mm
07:33 AM 38.8°F3.8°C 28.4°F-2.0°C 66% Calm Calm -- 30.17 in1021.7 mb 0.00 in0.0 mm 0.00 in0.0 mm 0.00 in0.0 mm
07:32 AM 38.7°F3.7°C 28.6°F-1.9°C 67% Calm Calm -- 30.17 in1021.7 mb 0.00 in0.0 mm 0.00 in0.0 mm 0.00 in0.0 mm
07:31 AM 38.7°F3.7°C 28.6°F-1.9°C 67% Calm Calm -- 30.17 in1021.7 mb 0.00 in0.0 mm 0.00 in0.0 mm 0.00 in0.0 mm
07:30 AM 38.7°F3.7°C 29.0°F-1.7°C 68% Calm Calm -- 30.16 in1021.3 mb 0.00 in0.0 mm 0.00 in0.0 mm 0.00 in0.0 mm
07:29 AM 38.7°F3.7°C 29.0°F-1.7°C 68% Calm Calm -- 30.17 in1021.7 mb 0.00 in0.0 mm 0.00 in0.0 mm 0.00 in0.0 mm
07:28 AM 38.7°F3.7°C 28.6°F-1.9°C 67% Calm Calm -- 30.16 in1021.3 mb 0.00 in0.0 mm 0.00 in0.0 mm 0.00 in0.0 mm
07:27 AM 38.5°F3.6°C 28.8°F-1.8°C 68% Calm Calm -- 30.16 in1021.3 mb 0.00 in0.0 mm 0.00 in0.0 mm 0.00 in0.0 mm
07:26 AM 38.3°F3.5°C 28.7°F-1.8°C 68% Calm Calm -- 30.17 in1021.7 mb 0.00 in0.0 mm 0.00 in0.0 mm 0.00 in0.0 mm
07:25 AM 38.3°F3.5°C 28.3°F-2.1°C 67% 0.1 mph S0.2 kmh S 0.9 mph1.4 kmh 30.16 in1021.3 mb 0.00 in0.0 mm 0.00 in0.0 mm 0.00 in0.0 mm
07:24 AM 38.1°F3.4°C 28.5°F-1.9°C 68% 0.1 mph SW0.2 kmh SW 0.9 mph1.4 kmh 30.16 in1021.3 mb 0.00 in0.0 mm 0.00 in0.0 mm 0.00 in0.0 mm
07:23 AM 38.1°F3.4°C 28.5°F-1.9°C 68% 0.2 mph WSW0.3 kmh WSW 1.7 mph2.7 kmh 30.16 in1021.3 mb 0.00 in0.0 mm 0.00 in0.0 mm 0.00 in0.0 mm
07:22 AM 38.1°F3.4°C 28.5°F-1.9°C 68% 0.4 mph WSW0.6 kmh WSW 1.7 mph2.7 kmh 30.16 in1021.3 mb 0.00 in0.0 mm 0.00 in0.0 mm 0.00 in0.0 mm
07:21 AM 38.1°F3.4°C 28.5°F-1.9°C 68% 0.6 mph WSW1.0 kmh WSW 2.6 mph4.2 kmh 30.16 in1021.3 mb 0.00 in0.0 mm 0.00 in0.0 mm 0.00 in0.0 mm
07:20 AM 37.8°F3.2°C 28.5°F-1.9°C 69% 0.8 mph WSW1.3 kmh WSW 2.6 mph4.2 kmh 30.16 in1021.3 mb 0.00 in0.0 mm 0.00 in0.0 mm 0.00 in0.0 mm
07:19 AM 37.9°F3.3°C 28.7°F-1.8°C 69% 0.8 mph WSW1.3 kmh WSW 2.6 mph4.2 kmh 30.16 in1021.3 mb 0.00 in0.0 mm 0.00 in0.0 mm 0.00 in0.0 mm
07:18 AM 37.9°F3.3°C 28.3°F-2.1°C 68% 0.8 mph WSW1.3 kmh WSW 2.6 mph4.2 kmh 30.16 in1021.3 mb 0.00 in0.0 mm 0.00 in0.0 mm 0.00 in0.0 mm
07:17 AM 37.9°F3.3°C 28.3°F-2.1°C 68% 0.9 mph WSW1.4 kmh WSW 2.6 mph4.2 kmh 30.16 in1021.3 mb 0.00 in0.0 mm 0.00 in0.0 mm 0.00 in0.0 mm
07:16 AM 37.9°F3.3°C 28.3°F-2.1°C 68% 0.9 mph WSW1.4 kmh WSW 2.6 mph4.2 kmh 30.15 in1021.0 mb 0.00 in0.0 mm 0.00 in0.0 mm 0.00 in0.0 mm
07:15 AM 37.8°F3.2°C 28.1°F-2.2°C 68% 0.8 mph WSW1.3 kmh WSW 2.6 mph4.2 kmh 30.15 in1021.0 mb 0.00 in0.0 mm 0.00 in0.0 mm 0.00 in0.0 mm
07:14 AM 37.8°F3.2°C 28.1°F-2.2°C 68% 0.7 mph WSW1.1 kmh WSW 2.6 mph4.2 kmh 30.15 in1021.0 mb 0.00 in0.0 mm 0.00 in0.0 mm 0.00 in0.0 mm
07:13 AM 37.8°F3.2°C 28.1°F-2.2°C 68% 0.7 mph SW1.1 kmh SW 2.6 mph4.2 kmh 30.15 in1021.0 mb 0.00 in0.0 mm 0.00 in0.0 mm 0.00 in0.0 mm
07:12 AM 37.8°F3.2°C 28.1°F-2.2°C 68% 0.5 mph SSW0.8 kmh SSW 2.6 mph4.2 kmh 30.15 in1021.0 mb 0.00 in0.0 mm 0.00 in0.0 mm 0.00 in0.0 mm
07:11 AM 37.8°F3.2°C 28.1°F-2.2°C 68% 0.2 mph SE0.3 kmh SE 2.6 mph4.2 kmh 30.15 in1021.0 mb 0.00 in0.0 mm 0.00 in0.0 mm 0.00 in0.0 mm
07:10 AM 37.8°F3.2°C 28.1°F-2.2°C 68% Calm Calm -- 30.15 in1021.0 mb 0.00 in0.0 mm 0.00 in0.0 mm 0.00 in0.0 mm
07:09 AM 37.8°F3.2°C 28.1°F-2.2°C 68% Calm Calm -- 30.15 in1021.0 mb 0.00 in0.0 mm 0.00 in0.0 mm 0.00 in0.0 mm
07:08 AM 37.8°F3.2°C 28.1°F-2.2°C 68% Calm Calm -- 30.15 in1021.0 mb 0.00 in0.0 mm 0.00 in0.0 mm 0.00 in0.0 mm
07:07 AM 37.8°F3.2°C 28.1°F-2.2°C 68% Calm Calm -- 30.14 in1020.7 mb 0.00 in0.0 mm 0.00 in0.0 mm 0.00 in0.0 mm
07:06 AM 37.8°F3.2°C 28.1°F-2.2°C 68% Calm Calm -- 30.15 in1021.0 mb 0.00 in0.0 mm 0.00 in0.0 mm 0.00 in0.0 mm
07:05 AM 37.8°F3.2°C 28.1°F-2.2°C 68% Calm Calm -- 30.15 in1021.0 mb 0.00 in0.0 mm 0.00 in0.0 mm 0.00 in0.0 mm
07:04 AM 37.8°F3.2°C 28.1°F-2.2°C 68% Calm Calm -- 30.14 in1020.7 mb 0.00 in0.0 mm 0.00 in0.0 mm 0.00 in0.0 mm
07:03 AM 37.8°F3.2°C 28.1°F-2.2°C 68% Calm Calm -- 30.15 in1021.0 mb 0.00 in0.0 mm 0.00 in0.0 mm 0.00 in0.0 mm
07:02 AM 37.8°F3.2°C 28.1°F-2.2°C 68% Calm Calm -- 30.15 in1021.0 mb 0.00 in0.0 mm 0.00 in0.0 mm 0.00 in0.0 mm
07:01 AM 37.8°F3.2°C 28.1°F-2.2°C 68% Calm Calm -- 30.15 in1021.0 mb 0.00 in0.0 mm 0.00 in0.0 mm 0.00 in0.0 mm
07:00 AM 37.8°F3.2°C 28.1°F-2.2°C 68% Calm Calm -- 30.14 in1020.7 mb 0.00 in0.0 mm 0.00 in0.0 mm 0.00 in0.0 mm
06:59 AM 37.8°F3.2°C 28.1°F-2.2°C 68% Calm Calm -- 30.15 in1021.0 mb 0.00 in0.0 mm 0.00 in0.0 mm 0.00 in0.0 mm
06:58 AM 37.8°F3.2°C 28.1°F-2.2°C 68% Calm Calm -- 30.15 in1021.0 mb 0.00 in0.0 mm 0.00 in0.0 mm 0.00 in0.0 mm
06:57 AM 37.8°F3.2°C 28.1°F-2.2°C 68% Calm Calm -- 30.15 in1021.0 mb 0.00 in0.0 mm 0.00 in0.0 mm 0.00 in0.0 mm
06:56 AM 37.8°F3.2°C 28.5°F-1.9°C 69% Calm Calm -- 30.15 in1021.0 mb 0.00 in0.0 mm 0.00 in0.0 mm 0.00 in0.0 mm
06:55 AM 37.8°F3.2°C 28.5°F-1.9°C 69% Calm Calm -- 30.15 in1021.0 mb 0.00 in0.0 mm 0.00 in0.0 mm 0.00 in0.0 mm
06:54 AM 37.8°F3.2°C 28.5°F-1.9°C 69% Calm Calm -- 30.15 in1021.0 mb 0.00 in0.0 mm 0.00 in0.0 mm 0.00 in0.0 mm
06:53 AM 37.8°F3.2°C 28.1°F-2.2°C 68% Calm Calm -- 30.15 in1021.0 mb 0.00 in0.0 mm 0.00 in0.0 mm 0.00 in0.0 mm
06:52 AM 37.8°F3.2°C 28.5°F-1.9°C 69% Calm Calm -- 30.14 in1020.7 mb 0.00 in0.0 mm 0.00 in0.0 mm 0.00 in0.0 mm
06:51 AM 37.8°F3.2°C 28.5°F-1.9°C 69% Calm Calm -- 30.15 in1021.0 mb 0.00 in0.0 mm 0.00 in0.0 mm 0.00 in0.0 mm
06:50 AM 37.8°F3.2°C 28.5°F-1.9°C 69% Calm Calm -- 30.15 in1021.0 mb 0.00 in0.0 mm 0.00 in0.0 mm 0.00 in0.0 mm
06:49 AM 37.8°F3.2°C 28.5°F-1.9°C 69% Calm Calm -- 30.15 in1021.0 mb 0.00 in0.0 mm 0.00 in0.0 mm 0.00 in0.0 mm
06:48 AM 37.8°F3.2°C 28.5°F-1.9°C 69% Calm Calm -- 30.15 in1021.0 mb 0.00 in0.0 mm 0.00 in0.0 mm 0.00 in0.0 mm
06:47 AM 37.8°F3.2°C 28.5°F-1.9°C 69% Calm Calm -- 30.15 in1021.0 mb 0.00 in0.0 mm 0.00 in0.0 mm 0.00 in0.0 mm
06:46 AM 37.8°F3.2°C 28.1°F-2.2°C 68% Calm Calm -- 30.15 in1021.0 mb 0.00 in0.0 mm 0.00 in0.0 mm 0.00 in0.0 mm
06:45 AM 37.8°F3.2°C 28.1°F-2.2°C 68% 0.2 mph SW0.3 kmh SW 1.7 mph2.7 kmh 30.15 in1021.0 mb 0.00 in0.0 mm 0.00 in0.0 mm 0.00 in0.0 mm
06:44 AM 37.8°F3.2°C 27.8°F-2.3°C 67% 0.3 mph SW0.5 kmh SW 1.7 mph2.7 kmh 30.15 in1021.0 mb 0.00 in0.0 mm 0.00 in0.0 mm 0.00 in0.0 mm
06:43 AM 37.8°F3.2°C 28.1°F-2.2°C 68% 0.3 mph SW0.5 kmh SW 1.7 mph2.7 kmh 30.16 in1021.3 mb 0.00 in0.0 mm 0.00 in0.0 mm 0.00 in0.0 mm
06:42 AM 37.8°F3.2°C 28.1°F-2.2°C 68% 0.4 mph SW0.6 kmh SW 1.7 mph2.7 kmh 30.15 in1021.0 mb 0.00 in0.0 mm 0.00 in0.0 mm 0.00 in0.0 mm
06:41 AM 37.8°F3.2°C 28.1°F-2.2°C 68% 0.3 mph SW0.5 kmh SW 1.7 mph2.7 kmh 30.15 in1021.0 mb 0.00 in0.0 mm 0.00 in0.0 mm 0.00 in0.0 mm
06:40 AM 37.9°F3.3°C 28.3°F-2.1°C 68% 0.3 mph SW0.5 kmh SW 1.7 mph2.7 kmh 30.15 in1021.0 mb 0.00 in0.0 mm 0.00 in0.0 mm 0.00 in0.0 mm
06:39 AM 37.8°F3.2°C 28.1°F-2.2°C 68% 0.4 mph SW0.6 kmh SW 1.7 mph2.7 kmh 30.15 in1021.0 mb 0.00 in0.0 mm 0.00 in0.0 mm 0.00 in0.0 mm
06:38 AM 37.9°F3.3°C 28.3°F-2.1°C 68% 0.4 mph SW0.6 kmh SW 1.7 mph2.7 kmh 30.15 in1021.0 mb 0.00 in0.0 mm 0.00 in0.0 mm 0.00 in0.0 mm
06:37 AM 37.9°F3.3°C 28.7°F-1.8°C 69% 0.3 mph SW0.5 kmh SW 1.7 mph2.7 kmh 30.15 in1021.0 mb 0.00 in0.0 mm 0.00 in0.0 mm 0.00 in0.0 mm
06:36 AM 37.9°F3.3°C 29.0°F-1.7°C 70% 0.3 mph SW0.5 kmh SW 1.7 mph2.7 kmh 30.14 in1020.7 mb 0.00 in0.0 mm 0.00 in0.0 mm 0.00 in0.0 mm
06:35 AM 37.8°F3.2°C 28.9°F-1.7°C 70% 0.2 mph SW0.3 kmh SW 1.7 mph2.7 kmh 30.15 in1021.0 mb 0.00 in0.0 mm 0.00 in0.0 mm 0.00 in0.0 mm
06:34 AM 37.9°F3.3°C 28.7°F-1.8°C 69% 0.1 mph W0.2 kmh W 0.9 mph1.4 kmh 30.15 in1021.0 mb 0.00 in0.0 mm 0.00 in0.0 mm 0.00 in0.0 mm
06:33 AM 37.9°F3.3°C 28.7°F-1.8°C 69% Calm Calm -- 30.15 in1021.0 mb 0.00 in0.0 mm 0.00 in0.0 mm 0.00 in0.0 mm
06:32 AM 37.8°F3.2°C 28.9°F-1.7°C 70% Calm Calm -- 30.15 in1021.0 mb 0.00 in0.0 mm 0.00 in0.0 mm 0.00 in0.0 mm
06:31 AM 37.8°F3.2°C 28.9°F-1.7°C 70% Calm Calm -- 30.15 in1021.0 mb 0.00 in0.0 mm 0.00 in0.0 mm 0.00 in0.0 mm
06:30 AM 37.8°F3.2°C 29.2°F-1.6°C 71% Calm Calm -- 30.15 in1021.0 mb 0.00 in0.0 mm 0.00 in0.0 mm 0.00 in0.0 mm
06:29 AM 37.8°F3.2°C 29.2°F-1.6°C 71% Calm Calm -- 30.15 in1021.0 mb 0.00 in0.0 mm 0.00 in0.0 mm 0.00 in0.0 mm
06:28 AM 37.8°F3.2°C 29.2°F-1.6°C 71% Calm Calm -- 30.15 in1021.0 mb 0.00 in0.0 mm 0.00 in0.0 mm 0.00 in0.0 mm
06:27 AM 37.8°F3.2°C 29.2°F-1.6°C 71% Calm Calm -- 30.15 in1021.0 mb 0.00 in0.0 mm 0.00 in0.0 mm 0.00 in0.0 mm
06:26 AM 37.8°F3.2°C 29.2°F-1.6°C 71% Calm Calm -- 30.15 in1021.0 mb 0.00 in0.0 mm 0.00 in0.0 mm 0.00 in0.0 mm
06:25 AM 37.8°F3.2°C 28.9°F-1.7°C 70% Calm Calm -- 30.15 in1021.0 mb 0.00 in0.0 mm 0.00 in0.0 mm 0.00 in0.0 mm
06:24 AM 37.8°F3.2°C 28.9°F-1.7°C 70% Calm Calm -- 30.15 in1021.0 mb 0.00 in0.0 mm 0.00 in0.0 mm 0.00 in0.0 mm
06:23 AM 37.8°F3.2°C 28.9°F-1.7°C 70% Calm Calm -- 30.15 in1021.0 mb 0.00 in0.0 mm 0.00 in0.0 mm 0.00 in0.0 mm
06:22 AM 37.8°F3.2°C 28.9°F-1.7°C 70% Calm Calm -- 30.15 in1021.0 mb 0.00 in0.0 mm 0.00 in0.0 mm 0.00 in0.0 mm
06:21 AM 37.9°F3.3°C 29.0°F-1.7°C 70% Calm Calm -- 30.15 in1021.0 mb 0.00 in0.0 mm 0.00 in0.0 mm 0.00 in0.0 mm
06:20 AM 37.9°F3.3°C 28.7°F-1.8°C 69% Calm Calm -- 30.15 in1021.0 mb 0.00 in0.0 mm 0.00 in0.0 mm 0.00 in0.0 mm
06:19 AM 37.8°F3.2°C 28.9°F-1.7°C 70% 0.1 mph S0.2 kmh S 0.9 mph1.4 kmh 30.15 in1021.0 mb 0.00 in0.0 mm 0.00 in0.0 mm 0.00 in0.0 mm
06:18 AM 37.8°F3.2°C 29.2°F-1.6°C 71% 0.2 mph S0.3 kmh S 1.7 mph2.7 kmh 30.15 in1021.0 mb 0.00 in0.0 mm 0.00 in0.0 mm 0.00 in0.0 mm
06:17 AM 37.8°F3.2°C 29.5°F-1.4°C 72% 0.3 mph S0.5 kmh S 1.7 mph2.7 kmh 30.14 in1020.7 mb 0.00 in0.0 mm 0.00 in0.0 mm 0.00 in0.0 mm
06:16 AM 37.8°F3.2°C 29.5°F-1.4°C 72% 0.3 mph S0.5 kmh S 1.7 mph2.7 kmh 30.14 in1020.7 mb 0.00 in0.0 mm 0.00 in0.0 mm 0.00 in0.0 mm
06:15 AM 37.8°F3.2°C 29.5°F-1.4°C 72% 0.3 mph S0.5 kmh S 1.7 mph2.7 kmh 30.14 in1020.7 mb 0.00 in0.0 mm 0.00 in0.0 mm 0.00 in0.0 mm
06:14 AM 37.8°F3.2°C 29.5°F-1.4°C 72% 0.3 mph S0.5 kmh S 1.7 mph2.7 kmh 30.14 in1020.7 mb 0.00 in0.0 mm 0.00 in0.0 mm 0.00 in0.0 mm
06:13 AM 37.8°F3.2°C 29.2°F-1.6°C 71% 0.3 mph S0.5 kmh S 1.7 mph2.7 kmh 30.14 in1020.7 mb 0.00 in0.0 mm 0.00 in0.0 mm 0.00 in0.0 mm
06:12 AM 37.8°F3.2°C 28.9°F-1.7°C 70% 0.3 mph S0.5 kmh S 1.7 mph2.7 kmh 30.14 in1020.7 mb 0.00 in0.0 mm 0.00 in0.0 mm 0.00 in0.0 mm
06:11 AM 37.8°F3.2°C 28.9°F-1.7°C 70% 0.3 mph S0.5 kmh S 1.7 mph2.7 kmh 30.14 in1020.7 mb 0.00 in0.0 mm 0.00 in0.0 mm 0.00 in0.0 mm
06:10 AM 37.8°F3.2°C 28.9°F-1.7°C 70% 0.3 mph S0.5 kmh S 1.7 mph2.7 kmh 30.14 in1020.7 mb 0.00 in0.0 mm 0.00 in0.0 mm 0.00 in0.0 mm
06:09 AM 37.8°F3.2°C 29.2°F-1.6°C 71% 0.3 mph S0.5 kmh S 1.7 mph2.7 kmh 30.14 in1020.7 mb 0.00 in0.0 mm 0.00 in0.0 mm 0.00 in0.0 mm
06:08 AM 37.8°F3.2°C 29.5°F-1.4°C 72% 0.2 mph S0.3 kmh S 1.7 mph2.7 kmh 30.14 in1020.7 mb 0.00 in0.0 mm 0.00 in0.0 mm 0.00 in0.0 mm
06:07 AM 37.8°F3.2°C 29.5°F-1.4°C 72% Calm Calm -- 30.14 in1020.7 mb 0.00 in0.0 mm 0.00 in0.0 mm 0.00 in0.0 mm
06:06 AM 37.8°F3.2°C 29.2°F-1.6°C 71% Calm Calm -- 30.14 in1020.7 mb 0.00 in0.0 mm 0.00 in0.0 mm 0.00 in0.0 mm
06:05 AM 37.6°F3.1°C 29.4°F-1.4°C 72% Calm Calm -- 30.14 in1020.7 mb 0.00 in0.0 mm 0.00 in0.0 mm 0.00 in0.0 mm
06:04 AM 37.8°F3.2°C 29.2°F-1.6°C 71% Calm Calm -- 30.14 in1020.7 mb 0.00 in0.0 mm 0.00 in0.0 mm 0.00 in0.0 mm
06:03 AM 37.8°F3.2°C 29.2°F-1.6°C 71% 0.1 mph S0.2 kmh S 0.9 mph1.4 kmh 30.14 in1020.7 mb 0.00 in0.0 mm 0.00 in0.0 mm 0.00 in0.0 mm
06:02 AM 37.8°F3.2°C 29.2°F-1.6°C 71% 0.1 mph S0.2 kmh S 0.9 mph1.4 kmh 30.14 in1020.7 mb 0.00 in0.0 mm 0.00 in0.0 mm 0.00 in0.0 mm
06:01 AM 37.8°F3.2°C 29.5°F-1.4°C 72% 0.1 mph S0.2 kmh S 0.9 mph1.4 kmh 30.14 in1020.7 mb 0.00 in0.0 mm 0.00 in0.0 mm 0.00 in0.0 mm
06:00 AM 37.8°F3.2°C 29.5°F-1.4°C 72% 0.1 mph S0.2 kmh S 0.9 mph1.4 kmh 30.13 in1020.3 mb 0.00 in0.0 mm 0.00 in0.0 mm 0.00 in0.0 mm
05:59 AM 37.8°F3.2°C 29.5°F-1.4°C 72% 0.1 mph S0.2 kmh S 0.9 mph1.4 kmh 30.13 in1020.3 mb 0.00 in0.0 mm 0.00 in0.0 mm 0.00 in0.0 mm
05:58 AM 37.8°F3.2°C 29.5°F-1.4°C 72% 0.1 mph S0.2 kmh S 0.9 mph1.4 kmh 30.13 in1020.3 mb 0.00 in0.0 mm 0.00 in0.0 mm 0.00 in0.0 mm
05:57 AM 37.8°F3.2°C 29.5°F-1.4°C 72% 0.1 mph S0.2 kmh S 0.9 mph1.4 kmh 30.13 in1020.3 mb 0.00 in0.0 mm 0.00 in0.0 mm 0.00 in0.0 mm
05:56 AM 37.8°F3.2°C 29.5°F-1.4°C 72% 0.1 mph S0.2 kmh S 0.9 mph1.4 kmh 30.13 in1020.3 mb 0.00 in0.0 mm 0.00 in0.0 mm 0.00 in0.0 mm
05:55 AM 37.8°F3.2°C 29.5°F-1.4°C 72% 0.1 mph S0.2 kmh S 0.9 mph1.4 kmh 30.12 in1020.0 mb 0.00 in0.0 mm 0.00 in0.0 mm 0.00 in0.0 mm
05:54 AM 37.8°F3.2°C 29.5°F-1.4°C 72% 0.1 mph S0.2 kmh S 0.9 mph1.4 kmh 30.12 in1020.0 mb 0.00 in0.0 mm 0.00 in0.0 mm 0.00 in0.0 mm
05:53 AM 37.8°F3.2°C 29.5°F-1.4°C 72% Calm Calm -- 30.13 in1020.3 mb 0.00 in0.0 mm 0.00 in0.0 mm 0.00 in0.0 mm
05:52 AM 37.8°F3.2°C 29.5°F-1.4°C 72% Calm Calm -- 30.12 in1020.0 mb 0.00 in0.0 mm 0.00 in0.0 mm 0.00 in0.0 mm
05:51 AM 37.8°F3.2°C 29.5°F-1.4°C 72% Calm Calm -- 30.12 in1020.0 mb 0.00 in0.0 mm 0.00 in0.0 mm 0.00 in0.0 mm
05:50 AM 37.8°F3.2°C 29.5°F-1.4°C 72% Calm Calm -- 30.12 in1020.0 mb 0.00 in0.0 mm 0.00 in0.0 mm 0.00 in0.0 mm
05:49 AM 37.8°F3.2°C 29.5°F-1.4°C 72% Calm Calm -- 30.12 in1020.0 mb 0.00 in0.0 mm 0.00 in0.0 mm 0.00 in0.0 mm
05:48 AM 37.8°F3.2°C 29.5°F-1.4°C 72% Calm Calm -- 30.12 in1020.0 mb 0.00 in0.0 mm 0.00 in0.0 mm 0.00 in0.0 mm
05:47 AM 37.8°F3.2°C 29.5°F-1.4°C 72% Calm Calm -- 30.13 in1020.3 mb 0.00 in0.0 mm 0.00 in0.0 mm 0.00 in0.0 mm
05:46 AM 37.8°F3.2°C 29.5°F-1.4°C 72% Calm Calm -- 30.12 in1020.0 mb 0.00 in0.0 mm 0.00 in0.0 mm 0.00 in0.0 mm
05:45 AM 37.8°F3.2°C 29.5°F-1.4°C 72% Calm Calm -- 30.12 in1020.0 mb 0.00 in0.0 mm 0.00 in0.0 mm 0.00 in0.0 mm
05:44 AM 37.8°F3.2°C 29.5°F-1.4°C 72% Calm Calm -- 30.12 in1020.0 mb 0.00 in0.0 mm 0.00 in0.0 mm 0.00 in0.0 mm
05:43 AM 37.8°F3.2°C 29.5°F-1.4°C 72% Calm Calm -- 30.12 in1020.0 mb 0.00 in0.0 mm 0.00 in0.0 mm 0.00 in0.0 mm
05:42 AM 37.8°F3.2°C 29.5°F-1.4°C 72% Calm Calm -- 30.12 in1020.0 mb 0.00 in0.0 mm 0.00 in0.0 mm 0.00 in0.0 mm
05:41 AM 37.8°F3.2°C 29.5°F-1.4°C 72% Calm Calm -- 30.12 in1020.0 mb 0.00 in0.0 mm 0.00 in0.0 mm 0.00 in0.0 mm
05:40 AM 37.8°F3.2°C 29.5°F-1.4°C 72% Calm Calm -- 30.12 in1020.0 mb 0.00 in0.0 mm 0.00 in0.0 mm 0.00 in0.0 mm
05:39 AM 37.8°F3.2°C 29.5°F-1.4°C 72% Calm Calm -- 30.11 in1019.6 mb 0.00 in0.0 mm 0.00 in0.0 mm 0.00 in0.0 mm
05:38 AM 37.8°F3.2°C 29.2°F-1.6°C 71% Calm Calm -- 30.12 in1020.0 mb 0.00 in0.0 mm 0.00 in0.0 mm 0.00 in0.0 mm
05:37 AM 37.8°F3.2°C 29.5°F-1.4°C 72% Calm Calm -- 30.12 in1020.0 mb 0.00 in0.0 mm 0.00 in0.0 mm 0.00 in0.0 mm
05:36 AM 38.1°F3.4°C 29.5°F-1.4°C 71% Calm Calm -- 30.11 in1019.6 mb 0.00 in0.0 mm 0.00 in0.0 mm 0.00 in0.0 mm
05:35 AM 37.8°F3.2°C 29.2°F-1.6°C 71% Calm Calm -- 30.11 in1019.6 mb 0.00 in0.0 mm 0.00 in0.0 mm 0.00 in0.0 mm
05:34 AM 37.8°F3.2°C 29.5°F-1.4°C 72% Calm Calm -- 30.11 in1019.6 mb 0.00 in0.0 mm 0.00 in0.0 mm 0.00 in0.0 mm
05:33 AM 37.8°F3.2°C 29.5°F-1.4°C 72% Calm Calm -- 30.12 in1020.0 mb 0.00 in0.0 mm 0.00 in0.0 mm 0.00 in0.0 mm
05:32 AM 37.8°F3.2°C 29.5°F-1.4°C 72% Calm Calm -- 30.11 in1019.6 mb 0.00 in0.0 mm 0.00 in0.0 mm 0.00 in0.0 mm
05:31 AM 37.8°F3.2°C 29.5°F-1.4°C 72% Calm Calm -- 30.12 in1020.0 mb 0.00 in0.0 mm 0.00 in0.0 mm 0.00 in0.0 mm
05:30 AM 37.8°F3.2°C 29.5°F-1.4°C 72% Calm Calm -- 30.11 in1019.6 mb 0.00 in0.0 mm 0.00 in0.0 mm 0.00 in0.0 mm
05:29 AM 37.8°F3.2°C 29.5°F-1.4°C 72% Calm Calm -- 30.11 in1019.6 mb 0.00 in0.0 mm 0.00 in0.0 mm 0.00 in0.0 mm
05:28 AM 37.8°F3.2°C 29.5°F-1.4°C 72% Calm Calm -- 30.11 in1019.6 mb 0.00 in0.0 mm 0.00 in0.0 mm 0.00 in0.0 mm
05:27 AM 37.8°F3.2°C 29.5°F-1.4°C 72% Calm Calm -- 30.11 in1019.6 mb 0.00 in0.0 mm 0.00 in0.0 mm 0.00 in0.0 mm
05:26 AM 38.1°F3.4°C 29.9°F-1.2°C 72% Calm Calm -- 30.11 in1019.6 mb 0.00 in0.0 mm 0.00 in0.0 mm 0.00 in0.0 mm
05:25 AM 38.1°F3.4°C 29.5°F-1.4°C 71% Calm Calm -- 30.11 in1019.6 mb 0.00 in0.0 mm 0.00 in0.0 mm 0.00 in0.0 mm
05:24 AM 37.8°F3.2°C 29.2°F-1.6°C 71% Calm Calm -- 30.11 in1019.6 mb 0.00 in0.0 mm 0.00 in0.0 mm 0.00 in0.0 mm
05:23 AM 38.1°F3.4°C 29.5°F-1.4°C 71% Calm Calm -- 30.11 in1019.6 mb 0.00 in0.0 mm 0.00 in0.0 mm 0.00 in0.0 mm
05:22 AM 38.1°F3.4°C 29.5°F-1.4°C 71% Calm Calm -- 30.11 in1019.6 mb 0.00 in0.0 mm 0.00 in0.0 mm 0.00 in0.0 mm
05:21 AM 38.1°F3.4°C 29.5°F-1.4°C 71% Calm Calm -- 30.11 in1019.6 mb 0.00 in0.0 mm 0.00 in0.0 mm 0.00 in0.0 mm
05:20 AM 38.1°F3.4°C 29.2°F-1.6°C 70% Calm Calm -- 30.11 in1019.6 mb 0.00 in0.0 mm 0.00 in0.0 mm 0.00 in0.0 mm
05:19 AM 38.1°F3.4°C 29.2°F-1.6°C 70% 0.1 mph S0.2 kmh S 0.9 mph1.4 kmh 30.11 in1019.6 mb 0.00 in0.0 mm 0.00 in0.0 mm 0.00 in0.0 mm
05:18 AM 38.1°F3.4°C 29.2°F-1.6°C 70% 0.1 mph S0.2 kmh S 0.9 mph1.4 kmh 30.11 in1019.6 mb 0.00 in0.0 mm 0.00 in0.0 mm 0.00 in0.0 mm
05:17 AM 38.1°F3.4°C 29.2°F-1.6°C 70% 0.2 mph S0.3 kmh S 0.9 mph1.4 kmh 30.11 in1019.6 mb 0.00 in0.0 mm 0.00 in0.0 mm 0.00 in0.0 mm
05:16 AM 38.1°F3.4°C 28.8°F-1.8°C 69% 0.3 mph S0.5 kmh S 0.9 mph1.4 kmh 30.12 in1020.0 mb 0.00 in0.0 mm 0.00 in0.0 mm 0.00 in0.0 mm
05:15 AM 38.1°F3.4°C 28.8°F-1.8°C 69% 0.4 mph S0.6 kmh S 0.9 mph1.4 kmh 30.11 in1019.6 mb 0.00 in0.0 mm 0.00 in0.0 mm 0.00 in0.0 mm
05:14 AM 38.1°F3.4°C 28.8°F-1.8°C 69% 0.5 mph S0.8 kmh S 0.9 mph1.4 kmh 30.11 in1019.6 mb 0.00 in0.0 mm 0.00 in0.0 mm 0.00 in0.0 mm
05:13 AM 38.1°F3.4°C 28.5°F-1.9°C 68% 0.6 mph S1.0 kmh S 0.9 mph1.4 kmh 30.11 in1019.6 mb 0.00 in0.0 mm 0.00 in0.0 mm 0.00 in0.0 mm
05:12 AM 38.1°F3.4°C 28.5°F-1.9°C 68% 0.7 mph S1.1 kmh S 0.9 mph1.4 kmh 30.11 in1019.6 mb 0.00 in0.0 mm 0.00 in0.0 mm 0.00 in0.0 mm
05:11 AM 38.1°F3.4°C 28.5°F-1.9°C 68% 0.8 mph S1.3 kmh S 0.9 mph1.4 kmh 30.12 in1020.0 mb 0.00 in0.0 mm 0.00 in0.0 mm 0.00 in0.0 mm
05:10 AM 38.1°F3.4°C 28.5°F-1.9°C 68% 0.8 mph S1.3 kmh S 0.9 mph1.4 kmh 30.12 in1020.0 mb 0.00 in0.0 mm 0.00 in0.0 mm 0.00 in0.0 mm
05:09 AM 38.7°F3.7°C 28.6°F-1.9°C 67% 0.9 mph S1.4 kmh S 0.9 mph1.4 kmh 30.12 in1020.0 mb 0.00 in0.0 mm 0.00 in0.0 mm 0.00 in0.0 mm
05:08 AM 38.7°F3.7°C 28.6°F-1.9°C 67% 0.9 mph S1.4 kmh S 0.9 mph1.4 kmh 30.12 in1020.0 mb 0.00 in0.0 mm 0.00 in0.0 mm 0.00 in0.0 mm
05:07 AM 38.7°F3.7°C 28.6°F-1.9°C 67% 0.8 mph S1.3 kmh S 0.9 mph1.4 kmh 30.11 in1019.6 mb 0.00 in0.0 mm 0.00 in0.0 mm 0.00 in0.0 mm
05:06 AM 38.7°F3.7°C 28.6°F-1.9°C 67% 1.0 mph S1.6 kmh S 3.5 mph5.6 kmh 30.12 in1020.0 mb 0.00 in0.0 mm 0.00 in0.0 mm 0.00 in0.0 mm
05:05 AM 38.7°F3.7°C 28.6°F-1.9°C 67% 1.2 mph S1.9 kmh S 3.5 mph5.6 kmh 30.12 in1020.0 mb 0.00 in0.0 mm 0.00 in0.0 mm 0.00 in0.0 mm
05:04 AM 38.7°F3.7°C 28.6°F-1.9°C 67% 1.1 mph S1.8 kmh S 3.5 mph5.6 kmh 30.11 in1019.6 mb 0.00 in0.0 mm 0.00 in0.0 mm 0.00 in0.0 mm
05:03 AM 38.7°F3.7°C 28.6°F-1.9°C 67% 1.0 mph S1.6 kmh S 3.5 mph5.6 kmh 30.12 in1020.0 mb 0.00 in0.0 mm 0.00 in0.0 mm 0.00 in0.0 mm
05:02 AM 38.7°F3.7°C 28.6°F-1.9°C 67% 1.0 mph S1.6 kmh S 3.5 mph5.6 kmh 30.12 in1020.0 mb 0.00 in0.0 mm 0.00 in0.0 mm 0.00 in0.0 mm
05:01 AM 38.7°F3.7°C 28.6°F-1.9°C 67% 0.9 mph S1.4 kmh S 3.5 mph5.6 kmh 30.12 in1020.0 mb 0.00 in0.0 mm 0.00 in0.0 mm 0.00 in0.0 mm
05:00 AM 38.7°F3.7°C 28.6°F-1.9°C 67% 0.8 mph S1.3 kmh S 3.5 mph5.6 kmh 30.12 in1020.0 mb 0.00 in0.0 mm 0.00 in0.0 mm 0.00 in0.0 mm
04:59 AM 38.8°F3.8°C 28.8°F-1.8°C 67% 0.8 mph S1.3 kmh S 3.5 mph5.6 kmh 30.11 in1019.6 mb 0.00 in0.0 mm 0.00 in0.0 mm 0.00 in0.0 mm
04:58 AM 39.0°F3.9°C 29.0°F-1.7°C 67% 0.7 mph S1.1 kmh S 3.5 mph5.6 kmh 30.12 in1020.0 mb 0.00 in0.0 mm 0.00 in0.0 mm 0.00 in0.0 mm
04:57 AM 39.0°F3.9°C 29.3°F-1.5°C 68% 0.7 mph S1.1 kmh S 3.5 mph5.6 kmh 30.11 in1019.6 mb 0.00 in0.0 mm 0.00 in0.0 mm 0.00 in0.0 mm
04:56 AM 38.5°F3.6°C 29.5°F-1.4°C 70% 0.6 mph S1.0 kmh S 3.5 mph5.6 kmh 30.11 in1019.6 mb 0.00 in0.0 mm 0.00 in0.0 mm 0.00 in0.0 mm
04:55 AM 38.7°F3.7°C 29.4°F-1.4°C 69% 0.5 mph S0.8 kmh S 2.6 mph4.2 kmh 30.11 in1019.6 mb 0.00 in0.0 mm 0.00 in0.0 mm 0.00 in0.0 mm
04:54 AM 38.7°F3.7°C 29.4°F-1.4°C 69% 0.7 mph S1.1 kmh S 2.6 mph4.2 kmh 30.12 in1020.0 mb 0.00 in0.0 mm 0.00 in0.0 mm 0.00 in0.0 mm
04:53 AM 38.7°F3.7°C 29.0°F-1.7°C 68% 0.9 mph S1.4 kmh S 2.6 mph4.2 kmh 30.11 in1019.6 mb 0.00 in0.0 mm 0.00 in0.0 mm 0.00 in0.0 mm
04:52 AM 38.8°F3.8°C 28.4°F-2.0°C 66% 1.0 mph S1.6 kmh S 2.6 mph4.2 kmh 30.12 in1020.0 mb 0.00 in0.0 mm 0.00 in0.0 mm 0.00 in0.0 mm
04:51 AM 38.8°F3.8°C 28.4°F-2.0°C 66% 1.1 mph S1.8 kmh S 2.6 mph4.2 kmh 30.11 in1019.6 mb 0.00 in0.0 mm 0.00 in0.0 mm 0.00 in0.0 mm
04:50 AM 38.8°F3.8°C 28.4°F-2.0°C 66% 1.0 mph S1.6 kmh S 2.6 mph4.2 kmh 30.11 in1019.6 mb 0.00 in0.0 mm 0.00 in0.0 mm 0.00 in0.0 mm
04:49 AM 38.8°F3.8°C 28.4°F-2.0°C 66% 1.0 mph S1.6 kmh S 2.6 mph4.2 kmh 30.11 in1019.6 mb 0.00 in0.0 mm 0.00 in0.0 mm 0.00 in0.0 mm
04:48 AM 38.8°F3.8°C 28.4°F-2.0°C 66% 1.0 mph S1.6 kmh S 2.6 mph4.2 kmh 30.11 in1019.6 mb 0.00 in0.0 mm 0.00 in0.0 mm 0.00 in0.0 mm
04:47 AM 38.7°F3.7°C 28.6°F-1.9°C 67% 1.0 mph S1.6 kmh S 2.6 mph4.2 kmh 30.11 in1019.6 mb 0.00 in0.0 mm 0.00 in0.0 mm 0.00 in0.0 mm
04:46 AM 38.8°F3.8°C 28.8°F-1.8°C 67% 0.8 mph S1.3 kmh S 2.6 mph4.2 kmh 30.11 in1019.6 mb 0.00 in0.0 mm 0.00 in0.0 mm 0.00 in0.0 mm
04:45 AM 38.7°F3.7°C 28.6°F-1.9°C 67% 0.6 mph SSE1.0 kmh SSE 2.6 mph4.2 kmh 30.11 in1019.6 mb 0.00 in0.0 mm 0.00 in0.0 mm 0.00 in0.0 mm
04:44 AM 38.8°F3.8°C 28.8°F-1.8°C 67% 0.5 mph S0.8 kmh S 2.6 mph4.2 kmh 30.11 in1019.6 mb 0.00 in0.0 mm 0.00 in0.0 mm 0.00 in0.0 mm
04:43 AM 38.8°F3.8°C 29.2°F-1.6°C 68% 0.5 mph S0.8 kmh S 1.7 mph2.7 kmh 30.11 in1019.6 mb 0.00 in0.0 mm 0.00 in0.0 mm 0.00 in0.0 mm
04:42 AM 38.5°F3.6°C 29.2°F-1.6°C 69% 0.7 mph S1.1 kmh S 2.6 mph4.2 kmh 30.11 in1019.6 mb 0.00 in0.0 mm 0.00 in0.0 mm 0.00 in0.0 mm
04:41 AM 38.7°F3.7°C 29.4°F-1.4°C 69% 0.7 mph S1.1 kmh S 2.6 mph4.2 kmh 30.11 in1019.6 mb 0.00 in0.0 mm 0.00 in0.0 mm 0.00 in0.0 mm
04:40 AM 38.8°F3.8°C 28.8°F-1.8°C 67% 0.8 mph S1.3 kmh S 2.6 mph4.2 kmh 30.11 in1019.6 mb 0.00 in0.0 mm 0.00 in0.0 mm 0.00 in0.0 mm
04:39 AM 38.8°F3.8°C 28.8°F-1.8°C 67% 1.0 mph SSW1.6 kmh SSW 2.6 mph4.2 kmh 30.11 in1019.6 mb 0.00 in0.0 mm 0.00 in0.0 mm 0.00 in0.0 mm
04:38 AM 38.8°F3.8°C 28.4°F-2.0°C 66% 1.0 mph SW1.6 kmh SW 2.6 mph4.2 kmh 30.10 in1019.3 mb 0.00 in0.0 mm 0.00 in0.0 mm 0.00 in0.0 mm
04:37 AM 38.8°F3.8°C 28.8°F-1.8°C 67% 1.0 mph SW1.6 kmh SW 2.6 mph4.2 kmh 30.11 in1019.6 mb 0.00 in0.0 mm 0.00 in0.0 mm 0.00 in0.0 mm
04:36 AM 38.8°F3.8°C 28.8°F-1.8°C 67% 1.0 mph SW1.6 kmh SW 2.6 mph4.2 kmh 30.11 in1019.6 mb 0.00 in0.0 mm 0.00 in0.0 mm 0.00 in0.0 mm
04:35 AM 38.8°F3.8°C 28.8°F-1.8°C 67% 1.0 mph SW1.6 kmh SW 2.6 mph4.2 kmh 30.10 in1019.3 mb 0.00 in0.0 mm 0.00 in0.0 mm 0.00 in0.0 mm
04:34 AM 38.7°F3.7°C 28.6°F-1.9°C 67% 0.9 mph N1.4 kmh N 2.6 mph4.2 kmh 30.10 in1019.3 mb 0.00 in0.0 mm 0.00 in0.0 mm 0.00 in0.0 mm
04:33 AM 38.8°F3.8°C 28.4°F-2.0°C 66% 0.8 mph N1.3 kmh N 2.6 mph4.2 kmh 30.11 in1019.6 mb 0.00 in0.0 mm 0.00 in0.0 mm 0.00 in0.0 mm
04:32 AM 38.7°F3.7°C 28.6°F-1.9°C 67% 0.8 mph N1.3 kmh N 4.4 mph7.1 kmh 30.11 in1019.6 mb 0.00 in0.0 mm 0.00 in0.0 mm 0.00 in0.0 mm
04:31 AM 38.7°F3.7°C 28.6°F-1.9°C 67% 1.2 mph SW1.9 kmh SW 7.0 mph11.3 kmh 30.10 in1019.3 mb 0.00 in0.0 mm 0.00 in0.0 mm 0.00 in0.0 mm
04:30 AM 38.7°F3.7°C 28.6°F-1.9°C 67% 1.4 mph SW2.3 kmh SW 7.0 mph11.3 kmh 30.10 in1019.3 mb 0.00 in0.0 mm 0.00 in0.0 mm 0.00 in0.0 mm
04:29 AM 38.8°F3.8°C 28.8°F-1.8°C 67% 1.2 mph SSW1.9 kmh SSW 7.0 mph11.3 kmh 30.11 in1019.6 mb 0.00 in0.0 mm 0.00 in0.0 mm 0.00 in0.0 mm
04:28 AM 38.8°F3.8°C 28.8°F-1.8°C 67% 1.2 mph SSW1.9 kmh SSW 7.0 mph11.3 kmh 30.11 in1019.6 mb 0.00 in0.0 mm 0.00 in0.0 mm 0.00 in0.0 mm
04:27 AM 38.8°F3.8°C 28.8°F-1.8°C 67% 1.1 mph SSW1.8 kmh SSW 7.0 mph11.3 kmh 30.10 in1019.3 mb 0.00 in0.0 mm 0.00 in0.0 mm 0.00 in0.0 mm
04:26 AM 39.0°F3.9°C 29.0°F-1.7°C 67% 1.2 mph SSW1.9 kmh SSW 7.0 mph11.3 kmh 30.10 in1019.3 mb 0.00 in0.0 mm 0.00 in0.0 mm 0.00 in0.0 mm
04:25 AM 39.0°F3.9°C 28.6°F-1.9°C 66% 1.2 mph SSW1.9 kmh SSW 7.0 mph11.3 kmh 30.10 in1019.3 mb 0.00 in0.0 mm 0.00 in0.0 mm 0.00 in0.0 mm
04:24 AM 39.0°F3.9°C 28.6°F-1.9°C 66% 1.3 mph SSW2.1 kmh SSW 7.0 mph11.3 kmh 30.10 in1019.3 mb 0.00 in0.0 mm 0.00 in0.0 mm 0.00 in0.0 mm
04:23 AM 39.2°F4.0°C 28.4°F-2.0°C 65% 1.2 mph SSW1.9 kmh SSW 7.0 mph11.3 kmh 30.10 in1019.3 mb 0.00 in0.0 mm 0.00 in0.0 mm 0.00 in0.0 mm
04:22 AM 39.0°F3.9°C 28.6°F-1.9°C 66% 1.2 mph SW1.9 kmh SW 7.0 mph11.3 kmh 30.10 in1019.3 mb 0.00 in0.0 mm 0.00 in0.0 mm 0.00 in0.0 mm
04:21 AM 39.0°F3.9°C 29.0°F-1.7°C 67% 0.8 mph SW1.3 kmh SW 7.0 mph11.3 kmh 30.10 in1019.3 mb 0.00 in0.0 mm 0.00 in0.0 mm 0.00 in0.0 mm
04:20 AM 39.0°F3.9°C 29.0°F-1.7°C 67% 0.5 mph SW0.8 kmh SW 2.6 mph4.2 kmh 30.10 in1019.3 mb 0.00 in0.0 mm 0.00 in0.0 mm 0.00 in0.0 mm
04:19 AM 38.8°F3.8°C 28.8°F-1.8°C 67% 0.5 mph SW0.8 kmh SW 2.6 mph4.2 kmh 30.10 in1019.3 mb 0.00 in0.0 mm 0.00 in0.0 mm 0.00 in0.0 mm
04:18 AM 38.8°F3.8°C 29.2°F-1.6°C 68% 0.5 mph SW0.8 kmh SW 2.6 mph4.2 kmh 30.10 in1019.3 mb 0.00 in0.0 mm 0.00 in0.0 mm 0.00 in0.0 mm
04:17 AM 38.8°F3.8°C 29.2°F-1.6°C 68% 0.5 mph SW0.8 kmh SW 2.6 mph4.2 kmh 30.09 in1019.0 mb 0.00 in0.0 mm 0.00 in0.0 mm 0.00 in0.0 mm
04:16 AM 39.0°F3.9°C 29.0°F-1.7°C 67% 0.5 mph SW0.8 kmh SW 2.6 mph4.2 kmh 30.09 in1019.0 mb 0.00 in0.0 mm 0.00 in0.0 mm 0.00 in0.0 mm
04:15 AM 39.0°F3.9°C 29.0°F-1.7°C 67% 0.5 mph SW0.8 kmh SW 2.6 mph4.2 kmh 30.10 in1019.3 mb 0.00 in0.0 mm 0.00 in0.0 mm 0.00 in0.0 mm
04:14 AM 39.2°F4.0°C 28.8°F-1.8°C 66% 0.5 mph SW0.8 kmh SW 2.6 mph4.2 kmh 30.09 in1019.0 mb 0.00 in0.0 mm 0.00 in0.0 mm 0.00 in0.0 mm
04:13 AM 39.0°F3.9°C 29.3°F-1.5°C 68% 0.5 mph SW0.8 kmh SW 2.6 mph4.2 kmh 30.09 in1019.0 mb 0.00 in0.0 mm 0.00 in0.0 mm 0.00 in0.0 mm
04:12 AM 38.8°F3.8°C 29.2°F-1.6°C 68% 0.2 mph S0.3 kmh S 2.6 mph4.2 kmh 30.09 in1019.0 mb 0.00 in0.0 mm 0.00 in0.0 mm 0.00 in0.0 mm
04:11 AM 38.7°F3.7°C 29.4°F-1.4°C 69% Calm Calm -- 30.09 in1019.0 mb 0.00 in0.0 mm 0.00 in0.0 mm 0.00 in0.0 mm
04:10 AM 38.7°F3.7°C 29.4°F-1.4°C 69% Calm Calm -- 30.10 in1019.3 mb 0.00 in0.0 mm 0.00 in0.0 mm 0.00 in0.0 mm
04:09 AM 38.8°F3.8°C 29.9°F-1.2°C 70% 0.2 mph SW0.3 kmh SW 1.7 mph2.7 kmh 30.09 in1019.0 mb 0.00 in0.0 mm 0.00 in0.0 mm 0.00 in0.0 mm
04:08 AM 38.7°F3.7°C 30.1°F-1.1°C 71% 0.2 mph SW0.3 kmh SW 1.7 mph2.7 kmh 30.09 in1019.0 mb 0.00 in0.0 mm 0.00 in0.0 mm 0.00 in0.0 mm
04:07 AM 38.7°F3.7°C 30.1°F-1.1°C 71% 0.5 mph S0.8 kmh S 3.5 mph5.6 kmh 30.09 in1019.0 mb 0.00 in0.0 mm 0.00 in0.0 mm 0.00 in0.0 mm
04:06 AM 38.7°F3.7°C 30.1°F-1.1°C 71% 0.6 mph S1.0 kmh S 3.5 mph5.6 kmh 30.09 in1019.0 mb 0.00 in0.0 mm 0.00 in0.0 mm 0.00 in0.0 mm
04:05 AM 38.7°F3.7°C 30.1°F-1.1°C 71% 1.0 mph S1.6 kmh S 3.5 mph5.6 kmh 30.09 in1019.0 mb 0.00 in0.0 mm 0.00 in0.0 mm 0.00 in0.0 mm
04:04 AM 38.7°F3.7°C 30.1°F-1.1°C 71% 1.2 mph S1.9 kmh S 3.5 mph5.6 kmh 30.09 in1019.0 mb 0.00 in0.0 mm 0.00 in0.0 mm 0.00 in0.0 mm
04:03 AM 38.7°F3.7°C 30.1°F-1.1°C 71% 1.3 mph S2.1 kmh S 3.5 mph5.6 kmh 30.09 in1019.0 mb 0.00 in0.0 mm 0.00 in0.0 mm 0.00 in0.0 mm
04:02 AM 38.8°F3.8°C 29.9°F-1.2°C 70% 1.4 mph S2.3 kmh S 3.5 mph5.6 kmh 30.09 in1019.0 mb 0.00 in0.0 mm 0.00 in0.0 mm 0.00 in0.0 mm
04:01 AM 39.0°F3.9°C 29.7°F-1.3°C 69% 1.9 mph S3.1 kmh S 4.4 mph7.1 kmh 30.09 in1019.0 mb 0.00 in0.0 mm 0.00 in0.0 mm 0.00 in0.0 mm
04:00 AM 38.8°F3.8°C 29.5°F-1.4°C 69% 2.1 mph S3.4 kmh S 4.4 mph7.1 kmh 30.09 in1019.0 mb 0.00 in0.0 mm 0.00 in0.0 mm 0.00 in0.0 mm
03:59 AM 38.8°F3.8°C 29.5°F-1.4°C 69% 2.1 mph S3.4 kmh S 4.4 mph7.1 kmh 30.09 in1019.0 mb 0.00 in0.0 mm 0.00 in0.0 mm 0.00 in0.0 mm
03:58 AM 38.8°F3.8°C 29.9°F-1.2°C 70% 2.2 mph S3.5 kmh S 4.4 mph7.1 kmh 30.09 in1019.0 mb 0.00 in0.0 mm 0.00 in0.0 mm 0.00 in0.0 mm
03:57 AM 38.8°F3.8°C 29.9°F-1.2°C 70% 2.1 mph SSW3.4 kmh SSW 4.4 mph7.1 kmh 30.09 in1019.0 mb 0.00 in0.0 mm 0.00 in0.0 mm 0.00 in0.0 mm
03:56 AM 38.8°F3.8°C 30.2°F-1.0°C 71% 2.1 mph SSW3.4 kmh SSW 4.4 mph7.1 kmh 30.09 in1019.0 mb 0.00 in0.0 mm 0.00 in0.0 mm 0.00 in0.0 mm
03:55 AM 38.8°F3.8°C 30.2°F-1.0°C 71% 1.9 mph SW3.1 kmh SW 4.4 mph7.1 kmh 30.09 in1019.0 mb 0.00 in0.0 mm 0.00 in0.0 mm 0.00 in0.0 mm
03:54 AM 38.8°F3.8°C 29.9°F-1.2°C 70% 1.8 mph SW2.9 kmh SW 4.4 mph7.1 kmh 30.09 in1019.0 mb 0.00 in0.0 mm 0.00 in0.0 mm 0.00 in0.0 mm
03:53 AM 38.8°F3.8°C 29.5°F-1.4°C 69% 2.1 mph WSW3.4 kmh WSW 9.6 mph15.4 kmh 30.09 in1019.0 mb 0.00 in0.0 mm 0.00 in0.0 mm 0.00 in0.0 mm
03:52 AM 38.8°F3.8°C 29.5°F-1.4°C 69% 2.6 mph WSW4.2 kmh WSW 9.6 mph15.4 kmh 30.09 in1019.0 mb 0.00 in0.0 mm 0.00 in0.0 mm 0.00 in0.0 mm
03:51 AM 39.0°F3.9°C 29.3°F-1.5°C 68% 2.4 mph W3.9 kmh W 9.6 mph15.4 kmh 30.09 in1019.0 mb 0.00 in0.0 mm 0.00 in0.0 mm 0.00 in0.0 mm
03:50 AM 39.0°F3.9°C 29.3°F-1.5°C 68% 2.5 mph WNW4.0 kmh WNW 9.6 mph15.4 kmh 30.09 in1019.0 mb 0.00 in0.0 mm 0.00 in0.0 mm 0.00 in0.0 mm
03:49 AM 39.0°F3.9°C 29.3°F-1.5°C 68% 2.6 mph NW4.2 kmh NW 9.6 mph15.4 kmh 30.09 in1019.0 mb 0.00 in0.0 mm 0.00 in0.0 mm 0.00 in0.0 mm
03:48 AM 39.2°F4.0°C 29.2°F-1.6°C 67% 2.7 mph WNW4.3 kmh WNW 9.6 mph15.4 kmh 30.09 in1019.0 mb 0.00 in0.0 mm 0.00 in0.0 mm 0.00 in0.0 mm
03:47 AM 39.2°F4.0°C 28.8°F-1.8°C 66% 2.7 mph WNW4.3 kmh WNW 9.6 mph15.4 kmh 30.09 in1019.0 mb 0.00 in0.0 mm 0.00 in0.0 mm 0.00 in0.0 mm
03:46 AM 39.2°F4.0°C 29.2°F-1.6°C 67% 2.7 mph W4.3 kmh W 9.6 mph15.4 kmh 30.09 in1019.0 mb 0.00 in0.0 mm 0.00 in0.0 mm 0.00 in0.0 mm
03:45 AM 39.4°F4.1°C 29.0°F-1.7°C 66% 2.6 mph W4.2 kmh W 9.6 mph15.4 kmh 30.09 in1019.0 mb 0.00 in0.0 mm 0.00 in0.0 mm 0.00 in0.0 mm
03:44 AM 39.6°F4.2°C 28.8°F-1.8°C 65% 2.5 mph WNW4.0 kmh WNW 9.6 mph15.4 kmh 30.09 in1019.0 mb 0.00 in0.0 mm 0.00 in0.0 mm 0.00 in0.0 mm
03:43 AM 39.0°F3.9°C 29.3°F-1.5°C 68% 2.4 mph W3.9 kmh W 9.6 mph15.4 kmh 30.09 in1019.0 mb 0.00 in0.0 mm 0.00 in0.0 mm 0.00 in0.0 mm
03:42 AM 39.2°F4.0°C 29.2°F-1.6°C 67% 1.9 mph ENE3.1 kmh ENE 3.5 mph5.6 kmh 30.09 in1019.0 mb 0.00 in0.0 mm 0.00 in0.0 mm 0.00 in0.0 mm
03:41 AM 39.2°F4.0°C 29.2°F-1.6°C 67% 2.3 mph ESE3.7 kmh ESE 7.0 mph11.3 kmh 30.09 in1019.0 mb 0.00 in0.0 mm 0.00 in0.0 mm 0.00 in0.0 mm
03:40 AM 39.4°F4.1°C 29.3°F-1.5°C 67% 2.5 mph SE4.0 kmh SE 7.0 mph11.3 kmh 30.09 in1019.0 mb 0.00 in0.0 mm 0.00 in0.0 mm 0.00 in0.0 mm
03:39 AM 39.2°F4.0°C 29.2°F-1.6°C 67% 2.5 mph SE4.0 kmh SE 7.0 mph11.3 kmh 30.09 in1019.0 mb 0.00 in0.0 mm 0.00 in0.0 mm 0.00 in0.0 mm
03:38 AM 39.2°F4.0°C 29.2°F-1.6°C 67% 2.2 mph SE3.5 kmh SE 7.0 mph11.3 kmh 30.09 in1019.0 mb 0.00 in0.0 mm 0.00 in0.0 mm 0.00 in0.0 mm
03:37 AM 39.0°F3.9°C 29.7°F-1.3°C 69% 2.0 mph SE3.2 kmh SE 7.0 mph11.3 kmh 30.09 in1019.0 mb 0.00 in0.0 mm 0.00 in0.0 mm 0.00 in0.0 mm
03:36 AM 39.0°F3.9°C 30.1°F-1.1°C 70% 2.1 mph ESE3.4 kmh ESE 7.0 mph11.3 kmh 30.09 in1019.0 mb 0.00 in0.0 mm 0.00 in0.0 mm 0.00 in0.0 mm
03:35 AM 39.0°F3.9°C 30.1°F-1.1°C 70% 2.5 mph SE4.0 kmh SE 7.0 mph11.3 kmh 30.09 in1019.0 mb 0.00 in0.0 mm 0.00 in0.0 mm 0.00 in0.0 mm
03:34 AM 39.2°F4.0°C 29.9°F-1.2°C 69% 2.5 mph SE4.0 kmh SE 7.0 mph11.3 kmh 30.09 in1019.0 mb 0.00 in0.0 mm 0.00 in0.0 mm 0.00 in0.0 mm
03:33 AM 39.4°F4.1°C 30.4°F-0.9°C 70% 2.3 mph SE3.7 kmh SE 7.0 mph11.3 kmh 30.08 in1018.6 mb 0.00 in0.0 mm 0.00 in0.0 mm 0.00 in0.0 mm
03:32 AM 39.2°F4.0°C 30.6°F-0.8°C 71% 2.2 mph S3.5 kmh S 7.0 mph11.3 kmh 30.09 in1019.0 mb 0.00 in0.0 mm 0.00 in0.0 mm 0.00 in0.0 mm
03:31 AM 38.5°F3.6°C 30.2°F-1.0°C 72% 1.9 mph WSW3.1 kmh WSW 7.0 mph11.3 kmh 30.08 in1018.6 mb 0.00 in0.0 mm 0.00 in0.0 mm 0.00 in0.0 mm
03:30 AM 38.7°F3.7°C 30.4°F-0.9°C 72% 1.6 mph NW2.6 kmh NW 4.4 mph7.1 kmh 30.09 in1019.0 mb 0.00 in0.0 mm 0.00 in0.0 mm 0.00 in0.0 mm
03:29 AM 38.7°F3.7°C 30.4°F-0.9°C 72% 1.7 mph NW2.7 kmh NW 4.4 mph7.1 kmh 30.09 in1019.0 mb 0.00 in0.0 mm 0.00 in0.0 mm 0.00 in0.0 mm
03:28 AM 38.7°F3.7°C 30.1°F-1.1°C 71% 1.9 mph NW3.1 kmh NW 4.4 mph7.1 kmh 30.08 in1018.6 mb 0.00 in0.0 mm 0.00 in0.0 mm 0.00 in0.0 mm
03:27 AM 39.0°F3.9°C 30.4°F-0.9°C 71% 2.1 mph NW3.4 kmh NW 4.4 mph7.1 kmh 30.09 in1019.0 mb 0.00 in0.0 mm 0.00 in0.0 mm 0.00 in0.0 mm
03:26 AM 38.8°F3.8°C 29.9°F-1.2°C 70% 2.2 mph NW3.5 kmh NW 4.4 mph7.1 kmh 30.09 in1019.0 mb 0.00 in0.0 mm 0.00 in0.0 mm 0.00 in0.0 mm
03:25 AM 39.0°F3.9°C 30.1°F-1.1°C 70% 2.1 mph NW3.4 kmh NW 2.6 mph4.2 kmh 30.08 in1018.6 mb 0.00 in0.0 mm 0.00 in0.0 mm 0.00 in0.0 mm
03:24 AM 39.2°F4.0°C 29.9°F-1.2°C 69% 2.2 mph NW3.5 kmh NW 2.6 mph4.2 kmh 30.08 in1018.6 mb 0.00 in0.0 mm 0.00 in0.0 mm 0.00 in0.0 mm
03:23 AM 39.2°F4.0°C 29.9°F-1.2°C 69% 2.4 mph NW3.9 kmh NW 2.6 mph4.2 kmh 30.08 in1018.6 mb 0.00 in0.0 mm 0.00 in0.0 mm 0.00 in0.0 mm
03:22 AM 38.7°F3.7°C 30.4°F-0.9°C 72% 2.5 mph NW4.0 kmh NW 2.6 mph4.2 kmh 30.08 in1018.6 mb 0.00 in0.0 mm 0.00 in0.0 mm 0.00 in0.0 mm
03:21 AM 38.7°F3.7°C 30.4°F-0.9°C 72% 2.3 mph NW3.7 kmh NW 2.6 mph4.2 kmh 30.08 in1018.6 mb 0.00 in0.0 mm 0.00 in0.0 mm 0.00 in0.0 mm
03:20 AM 38.7°F3.7°C 30.4°F-0.9°C 72% 2.2 mph NW3.5 kmh NW 2.6 mph4.2 kmh 30.08 in1018.6 mb 0.00 in0.0 mm 0.00 in0.0 mm 0.00 in0.0 mm
03:19 AM 38.7°F3.7°C 30.4°F-0.9°C 72% 2.0 mph WNW3.2 kmh WNW 2.6 mph4.2 kmh 30.08 in1018.6 mb 0.00 in0.0 mm 0.00 in0.0 mm 0.00 in0.0 mm
03:18 AM 38.7°F3.7°C 30.4°F-0.9°C 72% 1.7 mph WNW2.7 kmh WNW 2.6 mph4.2 kmh 30.08 in1018.6 mb 0.00 in0.0 mm 0.00 in0.0 mm 0.00 in0.0 mm
03:17 AM 38.7°F3.7°C 30.4°F-0.9°C 72% 1.4 mph WNW2.3 kmh WNW 2.6 mph4.2 kmh 30.08 in1018.6 mb 0.00 in0.0 mm 0.00 in0.0 mm 0.00 in0.0 mm
03:16 AM 38.7°F3.7°C 30.4°F-0.9°C 72% 1.2 mph W1.9 kmh W 2.6 mph4.2 kmh 30.09 in1019.0 mb 0.00 in0.0 mm 0.00 in0.0 mm 0.00 in0.0 mm
03:15 AM 38.7°F3.7°C 30.4°F-0.9°C 72% 1.0 mph W1.6 kmh W 2.6 mph4.2 kmh 30.08 in1018.6 mb 0.00 in0.0 mm 0.00 in0.0 mm 0.00 in0.0 mm
03:14 AM 38.7°F3.7°C 30.4°F-0.9°C 72% 0.7 mph WSW1.1 kmh WSW 2.6 mph4.2 kmh 30.07 in1018.3 mb 0.00 in0.0 mm 0.00 in0.0 mm 0.00 in0.0 mm
03:13 AM 38.3°F3.5°C 30.1°F-1.1°C 72% 0.5 mph WSW0.8 kmh WSW 2.6 mph4.2 kmh 30.08 in1018.6 mb 0.00 in0.0 mm 0.00 in0.0 mm 0.00 in0.0 mm
03:12 AM 38.3°F3.5°C 30.1°F-1.1°C 72% 0.3 mph W0.5 kmh W 1.7 mph2.7 kmh 30.08 in1018.6 mb 0.00 in0.0 mm 0.00 in0.0 mm 0.00 in0.0 mm
03:11 AM 38.3°F3.5°C 30.1°F-1.1°C 72% 0.2 mph W0.3 kmh W 1.7 mph2.7 kmh 30.07 in1018.3 mb 0.00 in0.0 mm 0.00 in0.0 mm 0.00 in0.0 mm
03:10 AM 38.3°F3.5°C 30.1°F-1.1°C 72% 0.2 mph S0.3 kmh S 1.7 mph2.7 kmh 30.07 in1018.3 mb 0.00 in0.0 mm 0.00 in0.0 mm 0.00 in0.0 mm
03:09 AM 38.5°F3.6°C 30.2°F-1.0°C 72% 0.1 mph S0.2 kmh S 0.9 mph1.4 kmh 30.07 in1018.3 mb 0.00 in0.0 mm 0.00 in0.0 mm 0.00 in0.0 mm
03:08 AM 38.5°F3.6°C 30.2°F-1.0°C 72% 0.1 mph S0.2 kmh S 0.9 mph1.4 kmh 30.07 in1018.3 mb 0.00 in0.0 mm 0.00 in0.0 mm 0.00 in0.0 mm
03:07 AM 38.7°F3.7°C 30.4°F-0.9°C 72% 0.1 mph S0.2 kmh S 0.9 mph1.4 kmh 30.07 in1018.3 mb 0.00 in0.0 mm 0.00 in0.0 mm 0.00 in0.0 mm
03:06 AM 38.7°F3.7°C 30.4°F-0.9°C 72% 0.1 mph S0.2 kmh S 0.9 mph1.4 kmh 30.07 in1018.3 mb 0.00 in0.0 mm 0.00 in0.0 mm 0.00 in0.0 mm
03:05 AM 38.7°F3.7°C 30.4°F-0.9°C 72% 0.1 mph S0.2 kmh S 0.9 mph1.4 kmh 30.07 in1018.3 mb 0.00 in0.0 mm 0.00 in0.0 mm 0.00 in0.0 mm
03:04 AM 38.7°F3.7°C 30.4°F-0.9°C 72% 0.1 mph S0.2 kmh S 0.9 mph1.4 kmh 30.07 in1018.3 mb 0.00 in0.0 mm 0.00 in0.0 mm 0.00 in0.0 mm
03:03 AM 38.7°F3.7°C 30.4°F-0.9°C 72% 0.1 mph S0.2 kmh S 0.9 mph1.4 kmh 30.07 in1018.3 mb 0.00 in0.0 mm 0.00 in0.0 mm 0.00 in0.0 mm
03:02 AM 38.7°F3.7°C 30.4°F-0.9°C 72% 0.1 mph S0.2 kmh S 0.9 mph1.4 kmh 30.07 in1018.3 mb 0.00 in0.0 mm 0.00 in0.0 mm 0.00 in0.0 mm
03:01 AM 38.7°F3.7°C 30.4°F-0.9°C 72% 0.1 mph S0.2 kmh S 0.9 mph1.4 kmh 30.07 in1018.3 mb 0.00 in0.0 mm 0.00 in0.0 mm 0.00 in0.0 mm
03:00 AM 38.7°F3.7°C 30.4°F-0.9°C 72% 0.1 mph SSW0.2 kmh SSW 0.9 mph1.4 kmh 30.07 in1018.3 mb 0.00 in0.0 mm 0.00 in0.0 mm 0.00 in0.0 mm
02:59 AM 38.7°F3.7°C 30.4°F-0.9°C 72% 0.1 mph SSW0.2 kmh SSW 0.9 mph1.4 kmh 30.07 in1018.3 mb 0.00 in0.0 mm 0.00 in0.0 mm 0.00 in0.0 mm
02:58 AM 38.8°F3.8°C 30.6°F-0.8°C 72% 0.2 mph WSW0.3 kmh WSW 0.9 mph1.4 kmh 30.07 in1018.3 mb 0.00 in0.0 mm 0.00 in0.0 mm 0.00 in0.0 mm
02:57 AM 38.8°F3.8°C 30.6°F-0.8°C 72% 0.2 mph WSW0.3 kmh WSW 0.9 mph1.4 kmh 30.07 in1018.3 mb 0.00 in0.0 mm 0.00 in0.0 mm 0.00 in0.0 mm
02:56 AM 38.8°F3.8°C 30.6°F-0.8°C 72% 0.2 mph WSW0.3 kmh WSW 0.9 mph1.4 kmh 30.07 in1018.3 mb 0.00 in0.0 mm 0.00 in0.0 mm 0.00 in0.0 mm
02:55 AM 39.0°F3.9°C 30.8°F-0.7°C 72% 0.2 mph WSW0.3 kmh WSW 0.9 mph1.4 kmh 30.07 in1018.3 mb 0.00 in0.0 mm 0.00 in0.0 mm 0.00 in0.0 mm
02:54 AM 38.8°F3.8°C 30.6°F-0.8°C 72% 0.2 mph WSW0.3 kmh WSW 0.9 mph1.4 kmh 30.07 in1018.3 mb 0.00 in0.0 mm 0.00 in0.0 mm 0.00 in0.0 mm
02:53 AM 38.8°F3.8°C 30.6°F-0.8°C 72% 0.3 mph S0.5 kmh S 2.6 mph4.2 kmh 30.07 in1018.3 mb 0.00 in0.0 mm 0.00 in0.0 mm 0.00 in0.0 mm
02:52 AM 39.0°F3.9°C 30.8°F-0.7°C 72% 0.6 mph S1.0 kmh S 3.5 mph5.6 kmh 30.07 in1018.3 mb 0.00 in0.0 mm 0.00 in0.0 mm 0.00 in0.0 mm
02:51 AM 39.0°F3.9°C 30.8°F-0.7°C 72% 1.0 mph S1.6 kmh S 3.5 mph5.6 kmh 30.07 in1018.3 mb 0.00 in0.0 mm 0.00 in0.0 mm 0.00 in0.0 mm
02:50 AM 39.0°F3.9°C 30.8°F-0.7°C 72% 0.9 mph S1.4 kmh S 3.5 mph5.6 kmh 30.08 in1018.6 mb 0.00 in0.0 mm 0.00 in0.0 mm 0.00 in0.0 mm
02:49 AM 39.0°F3.9°C 30.8°F-0.7°C 72% 1.1 mph S1.8 kmh S 3.5 mph5.6 kmh 30.07 in1018.3 mb 0.00 in0.0 mm 0.00 in0.0 mm 0.00 in0.0 mm
02:48 AM 39.2°F4.0°C 30.6°F-0.8°C 71% 1.0 mph S1.6 kmh S 3.5 mph5.6 kmh 30.07 in1018.3 mb 0.00 in0.0 mm 0.00 in0.0 mm 0.00 in0.0 mm
02:47 AM 39.2°F4.0°C 30.2°F-1.0°C 70% 1.0 mph S1.6 kmh S 3.5 mph5.6 kmh 30.07 in1018.3 mb 0.00 in0.0 mm 0.00 in0.0 mm 0.00 in0.0 mm
02:46 AM 39.4°F4.1°C 30.1°F-1.1°C 69% 1.0 mph S1.6 kmh S 3.5 mph5.6 kmh 30.07 in1018.3 mb 0.00 in0.0 mm 0.00 in0.0 mm 0.00 in0.0 mm
02:45 AM 39.4°F4.1°C 29.7°F-1.3°C 68% 1.0 mph S1.6 kmh S 3.5 mph5.6 kmh 30.07 in1018.3 mb 0.00 in0.0 mm 0.00 in0.0 mm 0.00 in0.0 mm
02:44 AM 39.6°F4.2°C 29.5°F-1.4°C 67% 1.2 mph S1.9 kmh S 3.5 mph5.6 kmh 30.07 in1018.3 mb 0.00 in0.0 mm 0.00 in0.0 mm 0.00 in0.0 mm
02:43 AM 39.6°F4.2°C 29.5°F-1.4°C 67% 1.2 mph S1.9 kmh S 3.5 mph5.6 kmh 30.07 in1018.3 mb 0.00 in0.0 mm 0.00 in0.0 mm 0.00 in0.0 mm
02:42 AM 39.4°F4.1°C 29.7°F-1.3°C 68% 0.9 mph N1.4 kmh N 3.5 mph5.6 kmh 30.07 in1018.3 mb 0.00 in0.0 mm 0.00 in0.0 mm 0.00 in0.0 mm
02:41 AM 39.4°F4.1°C 29.7°F-1.3°C 68% 0.8 mph WSW1.3 kmh WSW 7.9 mph12.7 kmh 30.07 in1018.3 mb 0.00 in0.0 mm 0.00 in0.0 mm 0.00 in0.0 mm
02:40 AM 39.4°F4.1°C 29.7°F-1.3°C 68% 1.3 mph WSW2.1 kmh WSW 7.9 mph12.7 kmh 30.07 in1018.3 mb 0.00 in0.0 mm 0.00 in0.0 mm 0.00 in0.0 mm
02:39 AM 39.2°F4.0°C 29.9°F-1.2°C 69% 1.3 mph WSW2.1 kmh WSW 7.9 mph12.7 kmh 30.07 in1018.3 mb 0.00 in0.0 mm 0.00 in0.0 mm 0.00 in0.0 mm
02:38 AM 39.4°F4.1°C 30.1°F-1.1°C 69% 1.2 mph W1.9 kmh W 7.9 mph12.7 kmh 30.07 in1018.3 mb 0.00 in0.0 mm 0.00 in0.0 mm 0.00 in0.0 mm
02:37 AM 39.4°F4.1°C 30.1°F-1.1°C 69% 1.3 mph W2.1 kmh W 7.9 mph12.7 kmh 30.08 in1018.6 mb 0.00 in0.0 mm 0.00 in0.0 mm 0.00 in0.0 mm
02:36 AM 39.6°F4.2°C 29.5°F-1.4°C 67% 1.3 mph W2.1 kmh W 7.9 mph12.7 kmh 30.07 in1018.3 mb 0.00 in0.0 mm 0.00 in0.0 mm 0.00 in0.0 mm
02:35 AM 39.4°F4.1°C 29.7°F-1.3°C 68% 1.4 mph WSW2.3 kmh WSW 7.9 mph12.7 kmh 30.08 in1018.6 mb 0.00 in0.0 mm 0.00 in0.0 mm 0.00 in0.0 mm
02:34 AM 39.6°F4.2°C 29.5°F-1.4°C 67% 1.4 mph SW2.3 kmh SW 7.9 mph12.7 kmh 30.07 in1018.3 mb 0.00 in0.0 mm 0.00 in0.0 mm 0.00 in0.0 mm
02:33 AM 39.6°F4.2°C 29.5°F-1.4°C 67% 1.7 mph SW2.7 kmh SW 7.9 mph12.7 kmh 30.08 in1018.6 mb 0.00 in0.0 mm 0.00 in0.0 mm 0.00 in0.0 mm
02:32 AM 39.7°F4.3°C 29.7°F-1.3°C 67% 2.0 mph WSW3.2 kmh WSW 7.9 mph12.7 kmh 30.07 in1018.3 mb 0.00 in0.0 mm 0.00 in0.0 mm 0.00 in0.0 mm
02:31 AM 39.4°F4.1°C 29.7°F-1.3°C 68% 1.7 mph SW2.7 kmh SW 7.9 mph12.7 kmh 30.08 in1018.6 mb 0.00 in0.0 mm 0.00 in0.0 mm 0.00 in0.0 mm
02:30 AM 39.6°F4.2°C 29.9°F-1.2°C 68% 1.2 mph SW1.9 kmh SW 5.2 mph8.4 kmh 30.08 in1018.6 mb 0.00 in0.0 mm 0.00 in0.0 mm 0.00 in0.0 mm
02:29 AM 39.6°F4.2°C 29.9°F-1.2°C 68% 1.3 mph SW2.1 kmh SW 5.2 mph8.4 kmh 30.07 in1018.3 mb 0.00 in0.0 mm 0.00 in0.0 mm 0.00 in0.0 mm
02:28 AM 39.4°F4.1°C 29.7°F-1.3°C 68% 1.3 mph SW2.1 kmh SW 5.2 mph8.4 kmh 30.08 in1018.6 mb 0.00 in0.0 mm 0.00 in0.0 mm 0.00 in0.0 mm
02:27 AM 39.4°F4.1°C 30.1°F-1.1°C 69% 1.4 mph SSW2.3 kmh SSW 5.2 mph8.4 kmh 30.08 in1018.6 mb 0.00 in0.0 mm 0.00 in0.0 mm 0.00 in0.0 mm
02:26 AM 39.2°F4.0°C 29.9°F-1.2°C 69% 1.6 mph SSW2.6 kmh SSW 5.2 mph8.4 kmh 30.07 in1018.3 mb 0.00 in0.0 mm 0.00 in0.0 mm 0.00 in0.0 mm
02:25 AM 39.4°F4.1°C 30.1°F-1.1°C 69% 1.4 mph SSW2.3 kmh SSW 5.2 mph8.4 kmh 30.07 in1018.3 mb 0.00 in0.0 mm 0.00 in0.0 mm 0.00 in0.0 mm
02:24 AM 39.4°F4.1°C 30.1°F-1.1°C 69% 1.3 mph SSW2.1 kmh SSW 5.2 mph8.4 kmh 30.07 in1018.3 mb 0.00 in0.0 mm 0.00 in0.0 mm 0.00 in0.0 mm
02:23 AM 39.2°F4.0°C 30.2°F-1.0°C 70% 1.0 mph S1.6 kmh S 5.2 mph8.4 kmh 30.07 in1018.3 mb 0.00 in0.0 mm 0.00 in0.0 mm 0.00 in0.0 mm
02:22 AM 39.2°F4.0°C 29.9°F-1.2°C 69% 0.7 mph SE1.1 kmh SE 2.6 mph4.2 kmh 30.07 in1018.3 mb 0.00 in0.0 mm 0.00 in0.0 mm 0.00 in0.0 mm
02:21 AM 39.4°F4.1°C 30.1°F-1.1°C 69% 0.9 mph SE1.4 kmh SE 2.6 mph4.2 kmh 30.07 in1018.3 mb 0.00 in0.0 mm 0.00 in0.0 mm 0.00 in0.0 mm
02:20 AM 39.2°F4.0°C 29.9°F-1.2°C 69% 1.1 mph SE1.8 kmh SE 2.6 mph4.2 kmh 30.07 in1018.3 mb 0.00 in0.0 mm 0.00 in0.0 mm 0.00 in0.0 mm
02:19 AM 39.2°F4.0°C 30.2°F-1.0°C 70% 1.0 mph SE1.6 kmh SE 2.6 mph4.2 kmh 30.08 in1018.6 mb 0.00 in0.0 mm 0.00 in0.0 mm 0.00 in0.0 mm
02:18 AM 39.2°F4.0°C 30.2°F-1.0°C 70% 0.9 mph SE1.4 kmh SE 2.6 mph4.2 kmh 30.07 in1018.3 mb 0.00 in0.0 mm 0.00 in0.0 mm 0.00 in0.0 mm
02:17 AM 39.0°F3.9°C 30.8°F-0.7°C 72% 0.7 mph SE1.1 kmh SE 2.6 mph4.2 kmh 30.07 in1018.3 mb 0.00 in0.0 mm 0.00 in0.0 mm 0.00 in0.0 mm
02:16 AM 39.0°F3.9°C 30.8°F-0.7°C 72% 0.5 mph ESE0.8 kmh ESE 2.6 mph4.2 kmh 30.07 in1018.3 mb 0.00 in0.0 mm 0.00 in0.0 mm 0.00 in0.0 mm
02:15 AM 39.0°F3.9°C 30.8°F-0.7°C 72% 0.6 mph E1.0 kmh E 2.6 mph4.2 kmh 30.07 in1018.3 mb 0.00 in0.0 mm 0.00 in0.0 mm 0.00 in0.0 mm
02:14 AM 39.2°F4.0°C 30.2°F-1.0°C 70% 0.8 mph ESE1.3 kmh ESE 2.6 mph4.2 kmh 30.07 in1018.3 mb 0.00 in0.0 mm 0.00 in0.0 mm 0.00 in0.0 mm
02:13 AM 39.2°F4.0°C 30.2°F-1.0°C 70% 1.0 mph SE1.6 kmh SE 3.5 mph5.6 kmh 30.07 in1018.3 mb 0.00 in0.0 mm 0.00 in0.0 mm 0.00 in0.0 mm
02:12 AM 39.2°F4.0°C 29.9°F-1.2°C 69% 1.2 mph SSE1.9 kmh SSE 3.5 mph5.6 kmh 30.07 in1018.3 mb 0.00 in0.0 mm 0.00 in0.0 mm 0.00 in0.0 mm
02:11 AM 39.2°F4.0°C 30.2°F-1.0°C 70% 1.2 mph SE1.9 kmh SE 3.5 mph5.6 kmh 30.08 in1018.6 mb 0.00 in0.0 mm 0.00 in0.0 mm 0.00 in0.0 mm
02:10 AM 39.2°F4.0°C 29.9°F-1.2°C 69% 1.2 mph SE1.9 kmh SE 3.5 mph5.6 kmh 30.07 in1018.3 mb 0.00 in0.0 mm 0.00 in0.0 mm 0.00 in0.0 mm
02:09 AM 39.2°F4.0°C 29.9°F-1.2°C 69% 1.3 mph SSE2.1 kmh SSE 3.5 mph5.6 kmh 30.07 in1018.3 mb 0.00 in0.0 mm 0.00 in0.0 mm 0.00 in0.0 mm
02:08 AM 39.4°F4.1°C 29.7°F-1.3°C 68% 1.4 mph SSE2.3 kmh SSE 3.5 mph5.6 kmh 30.07 in1018.3 mb 0.00 in0.0 mm 0.00 in0.0 mm 0.00 in0.0 mm
02:07 AM 39.2°F4.0°C 29.9°F-1.2°C 69% 1.5 mph SE2.4 kmh SE 3.5 mph5.6 kmh 30.07 in1018.3 mb 0.00 in0.0 mm 0.00 in0.0 mm 0.00 in0.0 mm
02:06 AM 39.4°F4.1°C 30.1°F-1.1°C 69% 1.6 mph SSE2.6 kmh SSE 3.5 mph5.6 kmh 30.07 in1018.3 mb 0.00 in0.0 mm 0.00 in0.0 mm 0.00 in0.0 mm
02:05 AM 39.4°F4.1°C 30.1°F-1.1°C 69% 1.7 mph SE2.7 kmh SE 3.5 mph5.6 kmh 30.07 in1018.3 mb 0.00 in0.0 mm 0.00 in0.0 mm 0.00 in0.0 mm
02:04 AM 39.2°F4.0°C 29.9°F-1.2°C 69% 1.7 mph SE2.7 kmh SE 3.5 mph5.6 kmh 30.07 in1018.3 mb 0.00 in0.0 mm 0.00 in0.0 mm 0.00 in0.0 mm
02:03 AM 39.2°F4.0°C 30.2°F-1.0°C 70% 1.5 mph E2.4 kmh E 3.5 mph5.6 kmh 30.07 in1018.3 mb 0.00 in0.0 mm 0.00 in0.0 mm 0.00 in0.0 mm
02:02 AM 39.4°F4.1°C 30.1°F-1.1°C 69% 1.4 mph E2.3 kmh E 2.6 mph4.2 kmh 30.07 in1018.3 mb 0.00 in0.0 mm 0.00 in0.0 mm 0.00 in0.0 mm
02:01 AM 39.4°F4.1°C 30.1°F-1.1°C 69% 1.6 mph SE2.6 kmh SE 2.6 mph4.2 kmh 30.07 in1018.3 mb 0.00 in0.0 mm 0.00 in0.0 mm 0.00 in0.0 mm
01:54 AM 39.2°F4.0°C 29.5°F-1.4°C 68% 1.7 mph SSW2.7 kmh SSW 7.0 mph11.3 kmh 30.07 in1018.3 mb 0.00 in0.0 mm 0.00 in0.0 mm 0.00 in0.0 mm
01:53 AM 39.2°F4.0°C 29.5°F-1.4°C 68% 1.8 mph S2.9 kmh S 7.0 mph11.3 kmh 30.07 in1018.3 mb 0.00 in0.0 mm 0.00 in0.0 mm 0.00 in0.0 mm
01:50 AM 39.4°F4.1°C 29.3°F-1.5°C 67% 2.0 mph S3.2 kmh S 7.0 mph11.3 kmh 30.07 in1018.3 mb 0.00 in0.0 mm 0.00 in0.0 mm 0.00 in0.0 mm
01:49 AM 39.4°F4.1°C 29.3°F-1.5°C 67% 2.1 mph S3.4 kmh S 7.0 mph11.3 kmh 30.07 in1018.3 mb 0.00 in0.0 mm 0.00 in0.0 mm 0.00 in0.0 mm
01:48 AM 39.6°F4.2°C 29.1°F-1.6°C 66% 2.0 mph S3.2 kmh S 7.0 mph11.3 kmh 30.07 in1018.3 mb 0.00 in0.0 mm 0.00 in0.0 mm 0.00 in0.0 mm
01:47 AM 39.6°F4.2°C 29.1°F-1.6°C 66% 1.9 mph S3.1 kmh S 7.0 mph11.3 kmh 30.07 in1018.3 mb 0.00 in0.0 mm 0.00 in0.0 mm 0.00 in0.0 mm
01:46 AM 39.4°F4.1°C 29.3°F-1.5°C 67% 1.8 mph S2.9 kmh S 7.0 mph11.3 kmh 30.07 in1018.3 mb 0.00 in0.0 mm 0.00 in0.0 mm 0.00 in0.0 mm
01:45 AM 39.2°F4.0°C 29.2°F-1.6°C 67% 1.5 mph S2.4 kmh S 4.4 mph7.1 kmh 30.07 in1018.3 mb 0.00 in0.0 mm 0.00 in0.0 mm 0.00 in0.0 mm
01:44 AM 39.4°F4.1°C 29.3°F-1.5°C 67% 1.3 mph S2.1 kmh S 4.4 mph7.1 kmh 30.07 in1018.3 mb 0.00 in0.0 mm 0.00 in0.0 mm 0.00 in0.0 mm
01:43 AM 39.4°F4.1°C 29.3°F-1.5°C 67% 1.2 mph SSW1.9 kmh SSW 4.4 mph7.1 kmh 30.07 in1018.3 mb 0.00 in0.0 mm 0.00 in0.0 mm 0.00 in0.0 mm
01:42 AM 39.2°F4.0°C 29.5°F-1.4°C 68% 1.1 mph SSW1.8 kmh SSW 4.4 mph7.1 kmh 30.07 in1018.3 mb 0.00 in0.0 mm 0.00 in0.0 mm 0.00 in0.0 mm
01:41 AM 39.2°F4.0°C 29.5°F-1.4°C 68% 1.0 mph SSW1.6 kmh SSW 4.4 mph7.1 kmh 30.07 in1018.3 mb 0.00 in0.0 mm 0.00 in0.0 mm 0.00 in0.0 mm
01:40 AM 39.2°F4.0°C 29.5°F-1.4°C 68% 0.7 mph SW1.1 kmh SW 4.4 mph7.1 kmh 30.07 in1018.3 mb 0.00 in0.0 mm 0.00 in0.0 mm 0.00 in0.0 mm
01:39 AM 39.2°F4.0°C 29.5°F-1.4°C 68% 0.6 mph SW1.0 kmh SW 4.4 mph7.1 kmh 30.07 in1018.3 mb 0.00 in0.0 mm 0.00 in0.0 mm 0.00 in0.0 mm
01:38 AM 39.2°F4.0°C 29.5°F-1.4°C 68% 0.7 mph S1.1 kmh S 4.4 mph7.1 kmh 30.07 in1018.3 mb 0.00 in0.0 mm 0.00 in0.0 mm 0.00 in0.0 mm
01:37 AM 39.2°F4.0°C 29.5°F-1.4°C 68% 0.8 mph SSE1.3 kmh SSE 4.4 mph7.1 kmh 30.07 in1018.3 mb 0.00 in0.0 mm 0.00 in0.0 mm 0.00 in0.0 mm
01:36 AM 39.0°F3.9°C 29.7°F-1.3°C 69% 0.9 mph ESE1.4 kmh ESE 4.4 mph7.1 kmh 30.07 in1018.3 mb 0.00 in0.0 mm 0.00 in0.0 mm 0.00 in0.0 mm
01:35 AM 39.2°F4.0°C 29.9°F-1.2°C 69% 0.8 mph E1.3 kmh E 2.6 mph4.2 kmh 30.07 in1018.3 mb 0.00 in0.0 mm 0.00 in0.0 mm 0.00 in0.0 mm
01:34 AM 38.8°F3.8°C 30.2°F-1.0°C 71% 1.0 mph E1.6 kmh E 2.6 mph4.2 kmh 30.07 in1018.3 mb 0.00 in0.0 mm 0.00 in0.0 mm 0.00 in0.0 mm
01:33 AM 39.0°F3.9°C 30.1°F-1.1°C 70% 0.9 mph ESE1.4 kmh ESE 2.6 mph4.2 kmh 30.07 in1018.3 mb 0.00 in0.0 mm 0.00 in0.0 mm 0.00 in0.0 mm
01:32 AM 39.0°F3.9°C 30.1°F-1.1°C 70% 1.1 mph SE1.8 kmh SE 2.6 mph4.2 kmh 30.07 in1018.3 mb 0.00 in0.0 mm 0.00 in0.0 mm 0.00 in0.0 mm
01:31 AM 39.2°F4.0°C 29.9°F-1.2°C 69% 1.2 mph ESE1.9 kmh ESE 2.6 mph4.2 kmh 30.07 in1018.3 mb 0.00 in0.0 mm 0.00 in0.0 mm 0.00 in0.0 mm
01:30 AM 39.4°F4.1°C 30.1°F-1.1°C 69% 1.3 mph ESE2.1 kmh ESE 2.6 mph4.2 kmh 30.07 in1018.3 mb 0.00 in0.0 mm 0.00 in0.0 mm 0.00 in0.0 mm
01:29 AM 39.4°F4.1°C 30.1°F-1.1°C 69% 1.3 mph ESE2.1 kmh ESE 2.6 mph4.2 kmh 30.07 in1018.3 mb 0.00 in0.0 mm 0.00 in0.0 mm 0.00 in0.0 mm
01:28 AM 39.0°F3.9°C 30.4°F-0.9°C 71% 1.1 mph SE1.8 kmh SE 2.6 mph4.2 kmh 30.06 in1017.9 mb 0.00 in0.0 mm 0.00 in0.0 mm 0.00 in0.0 mm
01:27 AM 39.0°F3.9°C 30.4°F-0.9°C 71% 1.0 mph SE1.6 kmh SE 2.6 mph4.2 kmh 30.06 in1017.9 mb 0.00 in0.0 mm 0.00 in0.0 mm 0.00 in0.0 mm
01:26 AM 39.0°F3.9°C 30.4°F-0.9°C 71% 0.9 mph SE1.4 kmh SE 2.6 mph4.2 kmh 30.07 in1018.3 mb 0.00 in0.0 mm 0.00 in0.0 mm 0.00 in0.0 mm
01:25 AM 39.0°F3.9°C 30.4°F-0.9°C 71% 0.7 mph SE1.1 kmh SE 2.6 mph4.2 kmh 30.07 in1018.3 mb 0.00 in0.0 mm 0.00 in0.0 mm 0.00 in0.0 mm
01:24 AM 39.0°F3.9°C 30.4°F-0.9°C 71% 0.4 mph S0.6 kmh S 1.7 mph2.7 kmh 30.07 in1018.3 mb 0.00 in0.0 mm 0.00 in0.0 mm 0.00 in0.0 mm
01:23 AM 38.8°F3.8°C 30.6°F-0.8°C 72% 0.4 mph S0.6 kmh S 1.7 mph2.7 kmh 30.07 in1018.3 mb 0.00 in0.0 mm 0.00 in0.0 mm 0.00 in0.0 mm
01:22 AM 38.8°F3.8°C 30.6°F-0.8°C 72% 0.3 mph N0.5 kmh N 1.7 mph2.7 kmh 30.07 in1018.3 mb 0.00 in0.0 mm 0.00 in0.0 mm 0.00 in0.0 mm
01:21 AM 38.7°F3.7°C 30.4°F-0.9°C 72% 0.1 mph N0.2 kmh N 1.7 mph2.7 kmh 30.07 in1018.3 mb 0.00 in0.0 mm 0.00 in0.0 mm 0.00 in0.0 mm
01:20 AM 38.7°F3.7°C 30.1°F-1.1°C 71% Calm Calm -- 30.07 in1018.3 mb 0.00 in0.0 mm 0.00 in0.0 mm 0.00 in0.0 mm
01:19 AM 38.7°F3.7°C 30.1°F-1.1°C 71% Calm Calm -- 30.06 in1017.9 mb 0.00 in0.0 mm 0.00 in0.0 mm 0.00 in0.0 mm
01:18 AM 38.7°F3.7°C 30.1°F-1.1°C 71% 0.2 mph S0.3 kmh S 2.6 mph4.2 kmh 30.07 in1018.3 mb 0.00 in0.0 mm 0.00 in0.0 mm 0.00 in0.0 mm
01:17 AM 38.7°F3.7°C 30.1°F-1.1°C 71% 0.4 mph S0.6 kmh S 2.6 mph4.2 kmh 30.07 in1018.3 mb 0.00 in0.0 mm 0.00 in0.0 mm 0.00 in0.0 mm
01:16 AM 38.7°F3.7°C 30.1°F-1.1°C 71% 0.4 mph S0.6 kmh S 2.6 mph4.2 kmh 30.07 in1018.3 mb 0.00 in0.0 mm 0.00 in0.0 mm 0.00 in0.0 mm
01:15 AM 38.7°F3.7°C 30.1°F-1.1°C 71% 0.4 mph S0.6 kmh S 2.6 mph4.2 kmh 30.07 in1018.3 mb 0.00 in0.0 mm 0.00 in0.0 mm 0.00 in0.0 mm
01:14 AM 38.7°F3.7°C 30.1°F-1.1°C 71% 0.4 mph S0.6 kmh S 2.6 mph4.2 kmh 30.07 in1018.3 mb 0.00 in0.0 mm 0.00 in0.0 mm 0.00 in0.0 mm
01:13 AM 38.8°F3.8°C 30.2°F-1.0°C 71% 0.5 mph S0.8 kmh S 2.6 mph4.2 kmh 30.07 in1018.3 mb 0.00 in0.0 mm 0.00 in0.0 mm 0.00 in0.0 mm
01:12 AM 38.8°F3.8°C 29.9°F-1.2°C 70% 0.6 mph S1.0 kmh S 2.6 mph4.2 kmh 30.07 in1018.3 mb 0.00 in0.0 mm 0.00 in0.0 mm 0.00 in0.0 mm
01:11 AM 38.8°F3.8°C 29.9°F-1.2°C 70% 0.9 mph S1.4 kmh S 3.5 mph5.6 kmh 30.07 in1018.3 mb 0.00 in0.0 mm 0.00 in0.0 mm 0.00 in0.0 mm
01:10 AM 38.8°F3.8°C 29.9°F-1.2°C 70% 1.1 mph S1.8 kmh S 3.5 mph5.6 kmh 30.08 in1018.6 mb 0.00 in0.0 mm 0.00 in0.0 mm 0.00 in0.0 mm
01:09 AM 38.8°F3.8°C 29.9°F-1.2°C 70% 1.3 mph S2.1 kmh S 3.5 mph5.6 kmh 30.08 in1018.6 mb 0.00 in0.0 mm 0.00 in0.0 mm 0.00 in0.0 mm
01:08 AM 39.0°F3.9°C 30.1°F-1.1°C 70% 1.3 mph S2.1 kmh S 3.5 mph5.6 kmh 30.08 in1018.6 mb 0.00 in0.0 mm 0.00 in0.0 mm 0.00 in0.0 mm
01:07 AM 38.8°F3.8°C 30.2°F-1.0°C 71% 1.3 mph SSW2.1 kmh SSW 3.5 mph5.6 kmh 30.07 in1018.3 mb 0.00 in0.0 mm 0.00 in0.0 mm 0.00 in0.0 mm
01:06 AM 39.0°F3.9°C 30.1°F-1.1°C 70% 1.5 mph S2.4 kmh S 3.5 mph5.6 kmh 30.07 in1018.3 mb 0.00 in0.0 mm 0.00 in0.0 mm 0.00 in0.0 mm
01:05 AM 39.0°F3.9°C 30.4°F-0.9°C 71% 1.6 mph S2.6 kmh S 3.5 mph5.6 kmh 30.08 in1018.6 mb 0.00 in0.0 mm 0.00 in0.0 mm 0.00 in0.0 mm
01:04 AM 38.7°F3.7°C 30.4°F-0.9°C 72% 1.7 mph S2.7 kmh S 3.5 mph5.6 kmh 30.08 in1018.6 mb 0.00 in0.0 mm 0.00 in0.0 mm 0.00 in0.0 mm
01:03 AM 38.8°F3.8°C 30.2°F-1.0°C 71% 1.7 mph SSW2.7 kmh SSW 3.5 mph5.6 kmh 30.08 in1018.6 mb 0.00 in0.0 mm 0.00 in0.0 mm 0.00 in0.0 mm
01:02 AM 38.8°F3.8°C 30.6°F-0.8°C 72% 1.6 mph SSW2.6 kmh SSW 3.5 mph5.6 kmh 30.09 in1019.0 mb 0.00 in0.0 mm 0.00 in0.0 mm 0.00 in0.0 mm
01:01 AM 38.7°F3.7°C 30.4°F-0.9°C 72% 1.5 mph SW2.4 kmh SW 3.5 mph5.6 kmh 30.08 in1018.6 mb 0.00 in0.0 mm 0.00 in0.0 mm 0.00 in0.0 mm
01:00 AM 38.8°F3.8°C 30.2°F-1.0°C 71% 1.5 mph SW2.4 kmh SW 3.5 mph5.6 kmh 30.08 in1018.6 mb 0.00 in0.0 mm 0.00 in0.0 mm 0.00 in0.0 mm
12:59 AM 38.8°F3.8°C 30.2°F-1.0°C 71% 1.3 mph SW2.1 kmh SW 3.5 mph5.6 kmh 30.08 in1018.6 mb 0.00 in0.0 mm 0.00 in0.0 mm 0.00 in0.0 mm
12:58 AM 38.8°F3.8°C 30.2°F-1.0°C 71% 1.2 mph SSW1.9 kmh SSW 3.5 mph5.6 kmh 30.09 in1019.0 mb 0.00 in0.0 mm 0.00 in0.0 mm 0.00 in0.0 mm
12:57 AM 38.8°F3.8°C 29.9°F-1.2°C 70% 0.9 mph SSE1.4 kmh SSE 2.6 mph4.2 kmh 30.09 in1019.0 mb 0.00 in0.0 mm 0.00 in0.0 mm 0.00 in0.0 mm
12:56 AM 39.0°F3.9°C 30.1°F-1.1°C 70% 0.8 mph SW1.3 kmh SW 2.6 mph4.2 kmh 30.08 in1018.6 mb 0.00 in0.0 mm 0.00 in0.0 mm 0.00 in0.0 mm
12:55 AM 39.0°F3.9°C 30.1°F-1.1°C 70% 0.7 mph WSW1.1 kmh WSW 2.6 mph4.2 kmh 30.08 in1018.6 mb 0.00 in0.0 mm 0.00 in0.0 mm 0.00 in0.0 mm
12:54 AM 38.8°F3.8°C 30.2°F-1.0°C 71% 0.9 mph S1.4 kmh S 2.6 mph4.2 kmh 30.08 in1018.6 mb 0.00 in0.0 mm 0.00 in0.0 mm 0.00 in0.0 mm
12:53 AM 39.0°F3.9°C 30.4°F-0.9°C 71% 0.9 mph S1.4 kmh S 2.6 mph4.2 kmh 30.08 in1018.6 mb 0.00 in0.0 mm 0.00 in0.0 mm 0.00 in0.0 mm
12:52 AM 39.0°F3.9°C 30.4°F-0.9°C 71% 1.0 mph S1.6 kmh S 2.6 mph4.2 kmh 30.08 in1018.6 mb 0.00 in0.0 mm 0.00 in0.0 mm 0.00 in0.0 mm
12:51 AM 38.7°F3.7°C 30.1°F-1.1°C 71% 0.9 mph S1.4 kmh S 2.6 mph4.2 kmh 30.08 in1018.6 mb 0.00 in0.0 mm 0.00 in0.0 mm 0.00 in0.0 mm
12:50 AM 38.8°F3.8°C 29.9°F-1.2°C 70% 0.9 mph SSE1.4 kmh SSE 2.6 mph4.2 kmh 30.08 in1018.6 mb 0.00 in0.0 mm 0.00 in0.0 mm 0.00 in0.0 mm
12:49 AM 38.8°F3.8°C 29.9°F-1.2°C 70% 1.5 mph SSW2.4 kmh SSW 5.2 mph8.4 kmh 30.08 in1018.6 mb 0.00 in0.0 mm 0.00 in0.0 mm 0.00 in0.0 mm
12:48 AM 39.0°F3.9°C 29.7°F-1.3°C 69% 1.8 mph SSW2.9 kmh SSW 5.2 mph8.4 kmh 30.08 in1018.6 mb 0.00 in0.0 mm 0.00 in0.0 mm 0.00 in0.0 mm
12:47 AM 39.2°F4.0°C 29.5°F-1.4°C 68% 2.0 mph SW3.2 kmh SW 5.2 mph8.4 kmh 30.08 in1018.6 mb 0.00 in0.0 mm 0.00 in0.0 mm 0.00 in0.0 mm
12:46 AM 39.2°F4.0°C 29.5°F-1.4°C 68% 2.5 mph SW4.0 kmh SW 5.2 mph8.4 kmh 30.08 in1018.6 mb 0.00 in0.0 mm 0.00 in0.0 mm 0.00 in0.0 mm
12:45 AM 39.2°F4.0°C 29.5°F-1.4°C 68% 2.6 mph SW4.2 kmh SW 5.2 mph8.4 kmh 30.08 in1018.6 mb 0.00 in0.0 mm 0.00 in0.0 mm 0.00 in0.0 mm
12:44 AM 39.2°F4.0°C 29.9°F-1.2°C 69% 2.6 mph SW4.2 kmh SW 5.2 mph8.4 kmh 30.08 in1018.6 mb 0.00 in0.0 mm 0.00 in0.0 mm 0.00 in0.0 mm
12:43 AM 39.2°F4.0°C 29.9°F-1.2°C 69% 2.7 mph SW4.3 kmh SW 5.2 mph8.4 kmh 30.07 in1018.3 mb 0.00 in0.0 mm 0.00 in0.0 mm 0.00 in0.0 mm
12:42 AM 39.2°F4.0°C 29.5°F-1.4°C 68% 2.7 mph SW4.3 kmh SW 5.2 mph8.4 kmh 30.08 in1018.6 mb 0.00 in0.0 mm 0.00 in0.0 mm 0.00 in0.0 mm
12:41 AM 39.4°F4.1°C 29.7°F-1.3°C 68% 3.0 mph SW4.8 kmh SW 5.2 mph8.4 kmh 30.08 in1018.6 mb 0.00 in0.0 mm 0.00 in0.0 mm 0.00 in0.0 mm
12:40 AM 39.2°F4.0°C 29.9°F-1.2°C 69% 3.1 mph SSW5.0 kmh SSW 5.2 mph8.4 kmh 30.08 in1018.6 mb 0.00 in0.0 mm 0.00 in0.0 mm 0.00 in0.0 mm
12:39 AM 39.4°F4.1°C 30.1°F-1.1°C 69% 2.6 mph SSW4.2 kmh SSW 5.2 mph8.4 kmh 30.07 in1018.3 mb 0.00 in0.0 mm 0.00 in0.0 mm 0.00 in0.0 mm
12:38 AM 39.4°F4.1°C 29.7°F-1.3°C 68% 2.2 mph S3.5 kmh S 5.2 mph8.4 kmh 30.07 in1018.3 mb 0.00 in0.0 mm 0.00 in0.0 mm 0.00 in0.0 mm
12:37 AM 39.4°F4.1°C 29.7°F-1.3°C 68% 2.2 mph S3.5 kmh S 5.2 mph8.4 kmh 30.08 in1018.6 mb 0.00 in0.0 mm 0.00 in0.0 mm 0.00 in0.0 mm
12:36 AM 39.4°F4.1°C 30.1°F-1.1°C 69% 1.9 mph SSE3.1 kmh SSE 5.2 mph8.4 kmh 30.07 in1018.3 mb 0.00 in0.0 mm 0.00 in0.0 mm 0.00 in0.0 mm
12:35 AM 39.4°F4.1°C 29.7°F-1.3°C 68% 1.8 mph SE2.9 kmh SE 5.2 mph8.4 kmh 30.07 in1018.3 mb 0.00 in0.0 mm 0.00 in0.0 mm 0.00 in0.0 mm
12:34 AM 39.6°F4.2°C 29.9°F-1.2°C 68% 1.8 mph E2.9 kmh E 5.2 mph8.4 kmh 30.07 in1018.3 mb 0.00 in0.0 mm 0.00 in0.0 mm 0.00 in0.0 mm
12:33 AM 39.6°F4.2°C 30.2°F-1.0°C 69% 2.0 mph E3.2 kmh E 5.2 mph8.4 kmh 30.07 in1018.3 mb 0.00 in0.0 mm 0.00 in0.0 mm 0.00 in0.0 mm
12:32 AM 39.6°F4.2°C 30.6°F-0.8°C 70% 2.1 mph E3.4 kmh E 5.2 mph8.4 kmh 30.07 in1018.3 mb 0.00 in0.0 mm 0.00 in0.0 mm 0.00 in0.0 mm
12:31 AM 39.2°F4.0°C 30.6°F-0.8°C 71% 2.1 mph E3.4 kmh E 5.2 mph8.4 kmh 30.07 in1018.3 mb 0.00 in0.0 mm 0.00 in0.0 mm 0.00 in0.0 mm
12:30 AM 39.2°F4.0°C 30.2°F-1.0°C 70% 1.8 mph NE2.9 kmh NE 4.4 mph7.1 kmh 30.07 in1018.3 mb 0.00 in0.0 mm 0.00 in0.0 mm 0.00 in0.0 mm
12:29 AM 39.4°F4.1°C 30.1°F-1.1°C 69% 1.7 mph NE2.7 kmh NE 4.4 mph7.1 kmh 30.07 in1018.3 mb 0.00 in0.0 mm 0.00 in0.0 mm 0.00 in0.0 mm
12:28 AM 39.6°F4.2°C 30.2°F-1.0°C 69% 1.7 mph NE2.7 kmh NE 4.4 mph7.1 kmh 30.07 in1018.3 mb 0.00 in0.0 mm 0.00 in0.0 mm 0.00 in0.0 mm
12:27 AM 39.6°F4.2°C 30.2°F-1.0°C 69% 1.4 mph NNW2.3 kmh NNW 4.4 mph7.1 kmh 30.07 in1018.3 mb 0.00 in0.0 mm 0.00 in0.0 mm 0.00 in0.0 mm
12:26 AM 39.6°F4.2°C 30.2°F-1.0°C 69% 1.3 mph E2.1 kmh E 4.4 mph7.1 kmh 30.07 in1018.3 mb 0.00 in0.0 mm 0.00 in0.0 mm 0.00 in0.0 mm
12:25 AM 39.7°F4.3°C 30.0°F-1.1°C 68% 1.3 mph NE2.1 kmh NE 4.4 mph7.1 kmh 30.07 in1018.3 mb 0.00 in0.0 mm 0.00 in0.0 mm 0.00 in0.0 mm
12:24 AM 39.7°F4.3°C 30.0°F-1.1°C 68% 1.2 mph ESE1.9 kmh ESE 4.4 mph7.1 kmh 30.07 in1018.3 mb 0.00 in0.0 mm 0.00 in0.0 mm 0.00 in0.0 mm
12:23 AM 39.7°F4.3°C 30.4°F-0.9°C 69% 1.2 mph E1.9 kmh E 4.4 mph7.1 kmh 30.06 in1017.9 mb 0.00 in0.0 mm 0.00 in0.0 mm 0.00 in0.0 mm
12:22 AM 39.4°F4.1°C 30.1°F-1.1°C 69% 1.1 mph SSE1.8 kmh SSE 4.4 mph7.1 kmh 30.07 in1018.3 mb 0.00 in0.0 mm 0.00 in0.0 mm 0.00 in0.0 mm
12:21 AM 39.4°F4.1°C 30.1°F-1.1°C 69% 1.6 mph S2.6 kmh S 6.1 mph9.8 kmh 30.07 in1018.3 mb 0.00 in0.0 mm 0.00 in0.0 mm 0.00 in0.0 mm
12:20 AM 39.2°F4.0°C 29.9°F-1.2°C 69% 1.9 mph SSW3.1 kmh SSW 6.1 mph9.8 kmh 30.07 in1018.3 mb 0.00 in0.0 mm 0.00 in0.0 mm 0.00 in0.0 mm
12:19 AM 39.4°F4.1°C 30.1°F-1.1°C 69% 1.9 mph SSW3.1 kmh SSW 6.1 mph9.8 kmh 30.07 in1018.3 mb 0.00 in0.0 mm 0.00 in0.0 mm 0.00 in0.0 mm
12:18 AM 39.4°F4.1°C 30.4°F-0.9°C 70% 2.0 mph SSW3.2 kmh SSW 6.1 mph9.8 kmh 30.07 in1018.3 mb 0.00 in0.0 mm 0.00 in0.0 mm 0.00 in0.0 mm
12:17 AM 39.4°F4.1°C 30.4°F-0.9°C 70% 2.2 mph S3.5 kmh S 6.1 mph9.8 kmh 30.07 in1018.3 mb 0.00 in0.0 mm 0.00 in0.0 mm 0.00 in0.0 mm
12:16 AM 39.4°F4.1°C 30.4°F-0.9°C 70% 2.4 mph S3.9 kmh S 6.1 mph9.8 kmh 30.07 in1018.3 mb 0.00 in0.0 mm 0.00 in0.0 mm 0.00 in0.0 mm
12:15 AM 39.6°F4.2°C 30.6°F-0.8°C 70% 2.7 mph S4.3 kmh S 6.1 mph9.8 kmh 30.07 in1018.3 mb 0.00 in0.0 mm 0.00 in0.0 mm 0.00 in0.0 mm
12:14 AM 39.7°F4.3°C 30.0°F-1.1°C 68% 3.2 mph S5.1 kmh S 7.9 mph12.7 kmh 30.07 in1018.3 mb 0.00 in0.0 mm 0.00 in0.0 mm 0.00 in0.0 mm
12:13 AM 39.9°F4.4°C 30.6°F-0.8°C 69% 2.9 mph S4.7 kmh S 7.9 mph12.7 kmh 30.07 in1018.3 mb 0.00 in0.0 mm 0.00 in0.0 mm 0.00 in0.0 mm
12:12 AM 39.4°F4.1°C 30.4°F-0.9°C 70% 2.6 mph S4.2 kmh S 7.9 mph12.7 kmh 30.07 in1018.3 mb 0.00 in0.0 mm 0.00 in0.0 mm 0.00 in0.0 mm
12:11 AM 39.4°F4.1°C 30.4°F-0.9°C 70% 2.1 mph S3.4 kmh S 7.9 mph12.7 kmh 30.06 in1017.9 mb 0.00 in0.0 mm 0.00 in0.0 mm 0.00 in0.0 mm
12:10 AM 39.4°F4.1°C 30.4°F-0.9°C 70% 1.8 mph SSE2.9 kmh SSE 7.9 mph12.7 kmh 30.07 in1018.3 mb 0.00 in0.0 mm 0.00 in0.0 mm 0.00 in0.0 mm
12:09 AM 39.4°F4.1°C 30.1°F-1.1°C 69% 1.9 mph SSE3.1 kmh SSE 7.9 mph12.7 kmh 30.06 in1017.9 mb 0.00 in0.0 mm 0.00 in0.0 mm 0.00 in0.0 mm
12:08 AM 39.4°F4.1°C 30.1°F-1.1°C 69% 2.2 mph SE3.5 kmh SE 7.9 mph12.7 kmh 30.06 in1017.9 mb 0.00 in0.0 mm 0.00 in0.0 mm 0.00 in0.0 mm
12:07 AM 39.7°F4.3°C 30.4°F-0.9°C 69% 2.4 mph SSE3.9 kmh SSE 7.9 mph12.7 kmh 30.06 in1017.9 mb 0.00 in0.0 mm 0.00 in0.0 mm 0.00 in0.0 mm
12:06 AM 39.6°F4.2°C 30.2°F-1.0°C 69% 2.4 mph S3.9 kmh S 7.9 mph12.7 kmh 30.06 in1017.9 mb 0.00 in0.0 mm 0.00 in0.0 mm 0.00 in0.0 mm
12:05 AM 39.2°F4.0°C 30.2°F-1.0°C 70% 2.5 mph SSE4.0 kmh SSE 7.9 mph12.7 kmh 30.07 in1018.3 mb 0.00 in0.0 mm 0.00 in0.0 mm 0.00 in0.0 mm
12:04 AM 39.4°F4.1°C 30.4°F-0.9°C 70% 2.1 mph SE3.4 kmh SE 5.2 mph8.4 kmh 30.07 in1018.3 mb 0.00 in0.0 mm 0.00 in0.0 mm 0.00 in0.0 mm
12:03 AM 39.4°F4.1°C 30.4°F-0.9°C 70% 2.5 mph SE4.0 kmh SE 5.2 mph8.4 kmh 30.06 in1017.9 mb 0.00 in0.0 mm 0.00 in0.0 mm 0.00 in0.0 mm
12:02 AM 39.4°F4.1°C 30.4°F-0.9°C 70% 2.7 mph SE4.3 kmh SE 5.2 mph8.4 kmh 30.07 in1018.3 mb 0.00 in0.0 mm 0.00 in0.0 mm 0.00 in0.0 mm
12:01 AM 39.4°F4.1°C 30.4°F-0.9°C 70% 2.7 mph SSE4.3 kmh SSE 5.2 mph8.4 kmh 30.07 in1018.3 mb 0.00 in0.0 mm 0.00 in0.0 mm 0.00 in0.0 mm
12:00 AM 39.4°F4.1°C 30.4°F-0.9°C 70% 2.9 mph SSE4.7 kmh SSE 5.2 mph8.4 kmh 30.07 in1018.3 mb 0.00 in0.0 mm 0.00 in0.0 mm 0.00 in0.0 mm